<?xml version="1.0" encoding="UTF-8" standalone="no" ?>
<gpx xmlns="http://www.topografix.com/GPX/1/1" xmlns:xsi="http://www.w3.org/2001/XMLSchema-instance" xsi:schemaLocation="http://www.topografix.com/GPX/1/1 http://www.topografix.com/GPX/1/1/gpx.xsd" version="1.1" creator="VisuGPX - https://www.visugpx.com">
  <metadata>
    <name>LORGUES DE SAINT JAUME A VIGNE-AUBIERE</name>
    <desc><![CDATA[Petite marche de 6km départ domaine de l\'Estello et une bonne dégustation à la fin.]]></desc>
  </metadata>
  <trk>
    <name><![CDATA[Tracé actuel: 29 SEP 2015 13:44]]></name>
    <trkseg>
      <trkpt lat="43.48193" lon="6.34325">
        <ele>114.53</ele>
        <time>2015-09-29T11:44:57Z</time>
      </trkpt>
      <trkpt lat="43.48193" lon="6.34325">
        <ele>114.53</ele>
        <time>2015-09-29T11:44:58Z</time>
      </trkpt>
      <trkpt lat="43.48194" lon="6.34318">
        <ele>115.01</ele>
        <time>2015-09-29T11:45:03Z</time>
      </trkpt>
      <trkpt lat="43.48187" lon="6.34308">
        <ele>115.98</ele>
        <time>2015-09-29T11:45:17Z</time>
      </trkpt>
      <trkpt lat="43.48184" lon="6.343">
        <ele>118.86</ele>
        <time>2015-09-29T11:45:31Z</time>
      </trkpt>
      <trkpt lat="43.48178" lon="6.34293">
        <ele>120.3</ele>
        <time>2015-09-29T11:45:42Z</time>
      </trkpt>
      <trkpt lat="43.48177" lon="6.34293">
        <ele>120.3</ele>
        <time>2015-09-29T11:45:43Z</time>
      </trkpt>
      <trkpt lat="43.48169" lon="6.34282">
        <ele>122.22</ele>
        <time>2015-09-29T11:45:58Z</time>
      </trkpt>
      <trkpt lat="43.48163" lon="6.34271">
        <ele>124.15</ele>
        <time>2015-09-29T11:46:13Z</time>
      </trkpt>
      <trkpt lat="43.48159" lon="6.3426">
        <ele>128.47</ele>
        <time>2015-09-29T11:46:26Z</time>
      </trkpt>
      <trkpt lat="43.48158" lon="6.34258">
        <ele>132.32</ele>
        <time>2015-09-29T11:46:29Z</time>
      </trkpt>
      <trkpt lat="43.48156" lon="6.34255">
        <ele>136.16</ele>
        <time>2015-09-29T11:46:32Z</time>
      </trkpt>
      <trkpt lat="43.48155" lon="6.34252">
        <ele>139.05</ele>
        <time>2015-09-29T11:46:35Z</time>
      </trkpt>
      <trkpt lat="43.48153" lon="6.34249">
        <ele>142.89</ele>
        <time>2015-09-29T11:46:39Z</time>
      </trkpt>
      <trkpt lat="43.48152" lon="6.34246">
        <ele>145.78</ele>
        <time>2015-09-29T11:46:42Z</time>
      </trkpt>
      <trkpt lat="43.48149" lon="6.34243">
        <ele>150.1</ele>
        <time>2015-09-29T11:46:47Z</time>
      </trkpt>
      <trkpt lat="43.48147" lon="6.3424">
        <ele>152.99</ele>
        <time>2015-09-29T11:46:51Z</time>
      </trkpt>
      <trkpt lat="43.48146" lon="6.34239">
        <ele>154.43</ele>
        <time>2015-09-29T11:46:53Z</time>
      </trkpt>
      <trkpt lat="43.48143" lon="6.34236">
        <ele>157.79</ele>
        <time>2015-09-29T11:46:58Z</time>
      </trkpt>
      <trkpt lat="43.4814" lon="6.3423">
        <ele>161.16</ele>
        <time>2015-09-29T11:47:03Z</time>
      </trkpt>
      <trkpt lat="43.48138" lon="6.34225">
        <ele>164.04</ele>
        <time>2015-09-29T11:47:08Z</time>
      </trkpt>
      <trkpt lat="43.48135" lon="6.3422">
        <ele>167.41</ele>
        <time>2015-09-29T11:47:14Z</time>
      </trkpt>
      <trkpt lat="43.48131" lon="6.34215">
        <ele>170.77</ele>
        <time>2015-09-29T11:47:21Z</time>
      </trkpt>
      <trkpt lat="43.48126" lon="6.3421">
        <ele>173.66</ele>
        <time>2015-09-29T11:47:28Z</time>
      </trkpt>
      <trkpt lat="43.48122" lon="6.34204">
        <ele>177.02</ele>
        <time>2015-09-29T11:47:36Z</time>
      </trkpt>
      <trkpt lat="43.48114" lon="6.34198">
        <ele>179.42</ele>
        <time>2015-09-29T11:47:50Z</time>
      </trkpt>
      <trkpt lat="43.48104" lon="6.34194">
        <ele>182.31</ele>
        <time>2015-09-29T11:48:05Z</time>
      </trkpt>
      <trkpt lat="43.48093" lon="6.34191">
        <ele>184.23</ele>
        <time>2015-09-29T11:48:18Z</time>
      </trkpt>
      <trkpt lat="43.48085" lon="6.34189">
        <ele>185.67</ele>
        <time>2015-09-29T11:48:27Z</time>
      </trkpt>
      <trkpt lat="43.48071" lon="6.34193">
        <ele>186.63</ele>
        <time>2015-09-29T11:48:41Z</time>
      </trkpt>
      <trkpt lat="43.48063" lon="6.34184">
        <ele>188.08</ele>
        <time>2015-09-29T11:48:56Z</time>
      </trkpt>
      <trkpt lat="43.48058" lon="6.3417">
        <ele>189.52</ele>
        <time>2015-09-29T11:49:09Z</time>
      </trkpt>
      <trkpt lat="43.48051" lon="6.34156">
        <ele>190.48</ele>
        <time>2015-09-29T11:49:23Z</time>
      </trkpt>
      <trkpt lat="43.48042" lon="6.34146">
        <ele>191.92</ele>
        <time>2015-09-29T11:49:35Z</time>
      </trkpt>
      <trkpt lat="43.48032" lon="6.34136">
        <ele>192.4</ele>
        <time>2015-09-29T11:49:50Z</time>
      </trkpt>
      <trkpt lat="43.4803" lon="6.34134">
        <ele>192.4</ele>
        <time>2015-09-29T11:49:53Z</time>
      </trkpt>
      <trkpt lat="43.48027" lon="6.34132">
        <ele>192.4</ele>
        <time>2015-09-29T11:49:56Z</time>
      </trkpt>
      <trkpt lat="43.48019" lon="6.34127">
        <ele>192.4</ele>
        <time>2015-09-29T11:50:09Z</time>
      </trkpt>
      <trkpt lat="43.48013" lon="6.34121">
        <ele>191.92</ele>
        <time>2015-09-29T11:50:19Z</time>
      </trkpt>
      <trkpt lat="43.48005" lon="6.34116">
        <ele>191.44</ele>
        <time>2015-09-29T11:50:27Z</time>
      </trkpt>
      <trkpt lat="43.47995" lon="6.34104">
        <ele>190.48</ele>
        <time>2015-09-29T11:50:43Z</time>
      </trkpt>
      <trkpt lat="43.47992" lon="6.34102">
        <ele>190.48</ele>
        <time>2015-09-29T11:50:46Z</time>
      </trkpt>
      <trkpt lat="43.47988" lon="6.34097">
        <ele>190</ele>
        <time>2015-09-29T11:50:51Z</time>
      </trkpt>
      <trkpt lat="43.47979" lon="6.34081">
        <ele>188.08</ele>
        <time>2015-09-29T11:51:07Z</time>
      </trkpt>
      <trkpt lat="43.47971" lon="6.34063">
        <ele>187.11</ele>
        <time>2015-09-29T11:51:22Z</time>
      </trkpt>
      <trkpt lat="43.47964" lon="6.3405">
        <ele>185.67</ele>
        <time>2015-09-29T11:51:35Z</time>
      </trkpt>
      <trkpt lat="43.47954" lon="6.34036">
        <ele>184.71</ele>
        <time>2015-09-29T11:51:48Z</time>
      </trkpt>
      <trkpt lat="43.47951" lon="6.34033">
        <ele>184.23</ele>
        <time>2015-09-29T11:51:53Z</time>
      </trkpt>
      <trkpt lat="43.47943" lon="6.34022">
        <ele>183.27</ele>
        <time>2015-09-29T11:52:04Z</time>
      </trkpt>
      <trkpt lat="43.47937" lon="6.34018">
        <ele>181.83</ele>
        <time>2015-09-29T11:52:19Z</time>
      </trkpt>
      <trkpt lat="43.47927" lon="6.34013">
        <ele>179.42</ele>
        <time>2015-09-29T11:52:34Z</time>
      </trkpt>
      <trkpt lat="43.47914" lon="6.3401">
        <ele>177.02</ele>
        <time>2015-09-29T11:52:50Z</time>
      </trkpt>
      <trkpt lat="43.479" lon="6.34008">
        <ele>174.14</ele>
        <time>2015-09-29T11:53:05Z</time>
      </trkpt>
      <trkpt lat="43.47891" lon="6.34008">
        <ele>172.21</ele>
        <time>2015-09-29T11:53:22Z</time>
      </trkpt>
      <trkpt lat="43.47888" lon="6.34004">
        <ele>172.21</ele>
        <time>2015-09-29T11:53:42Z</time>
      </trkpt>
      <trkpt lat="43.47889" lon="6.34002">
        <ele>171.73</ele>
        <time>2015-09-29T11:54:06Z</time>
      </trkpt>
      <trkpt lat="43.47889" lon="6.34001">
        <ele>171.25</ele>
        <time>2015-09-29T11:54:29Z</time>
      </trkpt>
      <trkpt lat="43.47889" lon="6.33996">
        <ele>171.25</ele>
        <time>2015-09-29T11:55:03Z</time>
      </trkpt>
      <trkpt lat="43.47889" lon="6.33992">
        <ele>170.77</ele>
        <time>2015-09-29T11:55:32Z</time>
      </trkpt>
      <trkpt lat="43.47888" lon="6.33989">
        <ele>170.77</ele>
        <time>2015-09-29T11:56:06Z</time>
      </trkpt>
      <trkpt lat="43.47886" lon="6.33982">
        <ele>170.77</ele>
        <time>2015-09-29T11:56:41Z</time>
      </trkpt>
      <trkpt lat="43.47885" lon="6.33984">
        <ele>170.29</ele>
        <time>2015-09-29T11:57:04Z</time>
      </trkpt>
      <trkpt lat="43.47886" lon="6.33981">
        <ele>170.29</ele>
        <time>2015-09-29T11:57:32Z</time>
      </trkpt>
      <trkpt lat="43.47884" lon="6.33976">
        <ele>169.81</ele>
        <time>2015-09-29T11:58:03Z</time>
      </trkpt>
      <trkpt lat="43.47884" lon="6.33976">
        <ele>169.81</ele>
        <time>2015-09-29T11:58:29Z</time>
      </trkpt>
      <trkpt lat="43.47884" lon="6.33975">
        <ele>169.33</ele>
        <time>2015-09-29T11:59:00Z</time>
      </trkpt>
      <trkpt lat="43.47883" lon="6.33972">
        <ele>169.81</ele>
        <time>2015-09-29T11:59:30Z</time>
      </trkpt>
      <trkpt lat="43.47878" lon="6.33971">
        <ele>168.85</ele>
        <time>2015-09-29T11:59:51Z</time>
      </trkpt>
      <trkpt lat="43.47871" lon="6.3397">
        <ele>167.89</ele>
        <time>2015-09-29T12:00:05Z</time>
      </trkpt>
      <trkpt lat="43.47857" lon="6.33971">
        <ele>166.45</ele>
        <time>2015-09-29T12:00:25Z</time>
      </trkpt>
      <trkpt lat="43.47845" lon="6.33971">
        <ele>165</ele>
        <time>2015-09-29T12:00:43Z</time>
      </trkpt>
      <trkpt lat="43.47827" lon="6.33963">
        <ele>164.04</ele>
        <time>2015-09-29T12:01:02Z</time>
      </trkpt>
      <trkpt lat="43.47816" lon="6.33959">
        <ele>163.08</ele>
        <time>2015-09-29T12:01:20Z</time>
      </trkpt>
      <trkpt lat="43.47802" lon="6.33952">
        <ele>162.12</ele>
        <time>2015-09-29T12:01:35Z</time>
      </trkpt>
      <trkpt lat="43.47789" lon="6.33947">
        <ele>160.2</ele>
        <time>2015-09-29T12:01:50Z</time>
      </trkpt>
      <trkpt lat="43.47774" lon="6.3394">
        <ele>158.27</ele>
        <time>2015-09-29T12:02:06Z</time>
      </trkpt>
      <trkpt lat="43.47759" lon="6.33933">
        <ele>156.35</ele>
        <time>2015-09-29T12:02:24Z</time>
      </trkpt>
      <trkpt lat="43.47756" lon="6.3393">
        <ele>155.87</ele>
        <time>2015-09-29T12:02:29Z</time>
      </trkpt>
      <trkpt lat="43.47742" lon="6.33916">
        <ele>152.99</ele>
        <time>2015-09-29T12:02:46Z</time>
      </trkpt>
      <trkpt lat="43.4774" lon="6.33914">
        <ele>152.51</ele>
        <time>2015-09-29T12:02:49Z</time>
      </trkpt>
      <trkpt lat="43.47726" lon="6.33899">
        <ele>150.1</ele>
        <time>2015-09-29T12:03:06Z</time>
      </trkpt>
      <trkpt lat="43.47717" lon="6.33887">
        <ele>148.18</ele>
        <time>2015-09-29T12:03:22Z</time>
      </trkpt>
      <trkpt lat="43.47708" lon="6.33879">
        <ele>146.74</ele>
        <time>2015-09-29T12:03:34Z</time>
      </trkpt>
      <trkpt lat="43.47705" lon="6.33878">
        <ele>146.26</ele>
        <time>2015-09-29T12:03:37Z</time>
      </trkpt>
      <trkpt lat="43.47693" lon="6.33875">
        <ele>145.3</ele>
        <time>2015-09-29T12:03:50Z</time>
      </trkpt>
      <trkpt lat="43.47681" lon="6.33871">
        <ele>144.34</ele>
        <time>2015-09-29T12:04:04Z</time>
      </trkpt>
      <trkpt lat="43.47677" lon="6.33869">
        <ele>144.34</ele>
        <time>2015-09-29T12:04:08Z</time>
      </trkpt>
      <trkpt lat="43.47674" lon="6.33868">
        <ele>143.85</ele>
        <time>2015-09-29T12:04:11Z</time>
      </trkpt>
      <trkpt lat="43.47665" lon="6.33859">
        <ele>142.89</ele>
        <time>2015-09-29T12:04:21Z</time>
      </trkpt>
      <trkpt lat="43.47659" lon="6.33852">
        <ele>141.93</ele>
        <time>2015-09-29T12:04:27Z</time>
      </trkpt>
      <trkpt lat="43.47653" lon="6.33845">
        <ele>140.97</ele>
        <time>2015-09-29T12:04:34Z</time>
      </trkpt>
      <trkpt lat="43.47635" lon="6.33837">
        <ele>138.09</ele>
        <time>2015-09-29T12:04:51Z</time>
      </trkpt>
      <trkpt lat="43.47624" lon="6.3384">
        <ele>136.16</ele>
        <time>2015-09-29T12:05:05Z</time>
      </trkpt>
      <trkpt lat="43.47615" lon="6.33842">
        <ele>135.2</ele>
        <time>2015-09-29T12:05:13Z</time>
      </trkpt>
      <trkpt lat="43.476" lon="6.33843">
        <ele>133.76</ele>
        <time>2015-09-29T12:05:27Z</time>
      </trkpt>
      <trkpt lat="43.47599" lon="6.33843">
        <ele>133.76</ele>
        <time>2015-09-29T12:05:28Z</time>
      </trkpt>
      <trkpt lat="43.47588" lon="6.33841">
        <ele>133.76</ele>
        <time>2015-09-29T12:05:41Z</time>
      </trkpt>
      <trkpt lat="43.47583" lon="6.33834">
        <ele>134.24</ele>
        <time>2015-09-29T12:05:53Z</time>
      </trkpt>
      <trkpt lat="43.47576" lon="6.33824">
        <ele>135.2</ele>
        <time>2015-09-29T12:06:01Z</time>
      </trkpt>
      <trkpt lat="43.47575" lon="6.3382">
        <ele>135.2</ele>
        <time>2015-09-29T12:06:04Z</time>
      </trkpt>
      <trkpt lat="43.47562" lon="6.33811">
        <ele>137.13</ele>
        <time>2015-09-29T12:06:20Z</time>
      </trkpt>
      <trkpt lat="43.47551" lon="6.33808">
        <ele>137.61</ele>
        <time>2015-09-29T12:06:30Z</time>
      </trkpt>
      <trkpt lat="43.47533" lon="6.33796">
        <ele>137.61</ele>
        <time>2015-09-29T12:06:47Z</time>
      </trkpt>
      <trkpt lat="43.47524" lon="6.33784">
        <ele>138.09</ele>
        <time>2015-09-29T12:07:00Z</time>
      </trkpt>
      <trkpt lat="43.47519" lon="6.33766">
        <ele>138.09</ele>
        <time>2015-09-29T12:07:14Z</time>
      </trkpt>
      <trkpt lat="43.47513" lon="6.33747">
        <ele>139.53</ele>
        <time>2015-09-29T12:07:30Z</time>
      </trkpt>
      <trkpt lat="43.47506" lon="6.33732">
        <ele>140.49</ele>
        <time>2015-09-29T12:07:44Z</time>
      </trkpt>
      <trkpt lat="43.47499" lon="6.33719">
        <ele>141.93</ele>
        <time>2015-09-29T12:07:57Z</time>
      </trkpt>
      <trkpt lat="43.47495" lon="6.33712">
        <ele>142.41</ele>
        <time>2015-09-29T12:08:04Z</time>
      </trkpt>
      <trkpt lat="43.47492" lon="6.3371">
        <ele>142.41</ele>
        <time>2015-09-29T12:08:07Z</time>
      </trkpt>
      <trkpt lat="43.47485" lon="6.33697">
        <ele>143.37</ele>
        <time>2015-09-29T12:08:21Z</time>
      </trkpt>
      <trkpt lat="43.47472" lon="6.33679">
        <ele>143.37</ele>
        <time>2015-09-29T12:08:37Z</time>
      </trkpt>
      <trkpt lat="43.47468" lon="6.33668">
        <ele>143.85</ele>
        <time>2015-09-29T12:08:47Z</time>
      </trkpt>
      <trkpt lat="43.4745" lon="6.33656">
        <ele>143.85</ele>
        <time>2015-09-29T12:09:03Z</time>
      </trkpt>
      <trkpt lat="43.47435" lon="6.33652">
        <ele>142.41</ele>
        <time>2015-09-29T12:09:20Z</time>
      </trkpt>
      <trkpt lat="43.47426" lon="6.33652">
        <ele>141.93</ele>
        <time>2015-09-29T12:09:29Z</time>
      </trkpt>
      <trkpt lat="43.47412" lon="6.33652">
        <ele>140.01</ele>
        <time>2015-09-29T12:09:44Z</time>
      </trkpt>
      <trkpt lat="43.47401" lon="6.33653">
        <ele>139.05</ele>
        <time>2015-09-29T12:09:58Z</time>
      </trkpt>
      <trkpt lat="43.47389" lon="6.33653">
        <ele>137.61</ele>
        <time>2015-09-29T12:10:14Z</time>
      </trkpt>
      <trkpt lat="43.47386" lon="6.33654">
        <ele>137.61</ele>
        <time>2015-09-29T12:10:18Z</time>
      </trkpt>
      <trkpt lat="43.47382" lon="6.33654">
        <ele>137.61</ele>
        <time>2015-09-29T12:10:21Z</time>
      </trkpt>
      <trkpt lat="43.47365" lon="6.33655">
        <ele>136.64</ele>
        <time>2015-09-29T12:10:38Z</time>
      </trkpt>
      <trkpt lat="43.47362" lon="6.33655">
        <ele>136.64</ele>
        <time>2015-09-29T12:10:42Z</time>
      </trkpt>
      <trkpt lat="43.47356" lon="6.33651">
        <ele>136.64</ele>
        <time>2015-09-29T12:10:51Z</time>
      </trkpt>
      <trkpt lat="43.47347" lon="6.33645">
        <ele>136.64</ele>
        <time>2015-09-29T12:11:02Z</time>
      </trkpt>
      <trkpt lat="43.4734" lon="6.33633">
        <ele>137.13</ele>
        <time>2015-09-29T12:11:13Z</time>
      </trkpt>
      <trkpt lat="43.47337" lon="6.33615">
        <ele>138.09</ele>
        <time>2015-09-29T12:11:30Z</time>
      </trkpt>
      <trkpt lat="43.4733" lon="6.33602">
        <ele>140.01</ele>
        <time>2015-09-29T12:11:45Z</time>
      </trkpt>
      <trkpt lat="43.47322" lon="6.33592">
        <ele>141.93</ele>
        <time>2015-09-29T12:12:00Z</time>
      </trkpt>
      <trkpt lat="43.47319" lon="6.33587">
        <ele>142.41</ele>
        <time>2015-09-29T12:12:06Z</time>
      </trkpt>
      <trkpt lat="43.47317" lon="6.33573">
        <ele>144.34</ele>
        <time>2015-09-29T12:12:20Z</time>
      </trkpt>
      <trkpt lat="43.47309" lon="6.33559">
        <ele>146.26</ele>
        <time>2015-09-29T12:12:33Z</time>
      </trkpt>
      <trkpt lat="43.47308" lon="6.33558">
        <ele>146.26</ele>
        <time>2015-09-29T12:12:34Z</time>
      </trkpt>
      <trkpt lat="43.473" lon="6.33545">
        <ele>147.7</ele>
        <time>2015-09-29T12:12:47Z</time>
      </trkpt>
      <trkpt lat="43.4729" lon="6.33533">
        <ele>149.14</ele>
        <time>2015-09-29T12:13:01Z</time>
      </trkpt>
      <trkpt lat="43.47286" lon="6.33526">
        <ele>150.1</ele>
        <time>2015-09-29T12:13:09Z</time>
      </trkpt>
      <trkpt lat="43.47279" lon="6.33517">
        <ele>151.54</ele>
        <time>2015-09-29T12:13:21Z</time>
      </trkpt>
      <trkpt lat="43.47276" lon="6.33514">
        <ele>151.54</ele>
        <time>2015-09-29T12:13:25Z</time>
      </trkpt>
      <trkpt lat="43.47267" lon="6.33503">
        <ele>152.99</ele>
        <time>2015-09-29T12:13:39Z</time>
      </trkpt>
      <trkpt lat="43.47265" lon="6.33499">
        <ele>153.47</ele>
        <time>2015-09-29T12:13:43Z</time>
      </trkpt>
      <trkpt lat="43.4726" lon="6.33489">
        <ele>154.43</ele>
        <time>2015-09-29T12:13:52Z</time>
      </trkpt>
      <trkpt lat="43.47257" lon="6.33475">
        <ele>155.39</ele>
        <time>2015-09-29T12:14:04Z</time>
      </trkpt>
      <trkpt lat="43.47254" lon="6.3346">
        <ele>156.35</ele>
        <time>2015-09-29T12:14:16Z</time>
      </trkpt>
      <trkpt lat="43.47252" lon="6.33456">
        <ele>156.35</ele>
        <time>2015-09-29T12:14:19Z</time>
      </trkpt>
      <trkpt lat="43.4725" lon="6.33453">
        <ele>156.35</ele>
        <time>2015-09-29T12:14:22Z</time>
      </trkpt>
      <trkpt lat="43.47249" lon="6.33437">
        <ele>156.83</ele>
        <time>2015-09-29T12:14:36Z</time>
      </trkpt>
      <trkpt lat="43.47242" lon="6.33421">
        <ele>157.31</ele>
        <time>2015-09-29T12:14:50Z</time>
      </trkpt>
      <trkpt lat="43.47234" lon="6.33418">
        <ele>156.83</ele>
        <time>2015-09-29T12:14:56Z</time>
      </trkpt>
      <trkpt lat="43.47221" lon="6.33408">
        <ele>155.87</ele>
        <time>2015-09-29T12:15:11Z</time>
      </trkpt>
      <trkpt lat="43.47206" lon="6.33405">
        <ele>154.43</ele>
        <time>2015-09-29T12:15:26Z</time>
      </trkpt>
      <trkpt lat="43.47194" lon="6.33397">
        <ele>152.99</ele>
        <time>2015-09-29T12:15:42Z</time>
      </trkpt>
      <trkpt lat="43.47184" lon="6.33387">
        <ele>152.03</ele>
        <time>2015-09-29T12:15:56Z</time>
      </trkpt>
      <trkpt lat="43.47178" lon="6.33381">
        <ele>151.06</ele>
        <time>2015-09-29T12:16:08Z</time>
      </trkpt>
      <trkpt lat="43.47173" lon="6.33371">
        <ele>150.1</ele>
        <time>2015-09-29T12:16:19Z</time>
      </trkpt>
      <trkpt lat="43.47167" lon="6.33359">
        <ele>148.66</ele>
        <time>2015-09-29T12:16:32Z</time>
      </trkpt>
      <trkpt lat="43.47161" lon="6.33348">
        <ele>146.74</ele>
        <time>2015-09-29T12:16:47Z</time>
      </trkpt>
      <trkpt lat="43.47155" lon="6.3333">
        <ele>145.3</ele>
        <time>2015-09-29T12:17:04Z</time>
      </trkpt>
      <trkpt lat="43.47153" lon="6.33327">
        <ele>144.82</ele>
        <time>2015-09-29T12:17:07Z</time>
      </trkpt>
      <trkpt lat="43.47149" lon="6.3331">
        <ele>142.89</ele>
        <time>2015-09-29T12:17:22Z</time>
      </trkpt>
      <trkpt lat="43.47147" lon="6.33294">
        <ele>141.45</ele>
        <time>2015-09-29T12:17:36Z</time>
      </trkpt>
      <trkpt lat="43.47146" lon="6.33288">
        <ele>140.97</ele>
        <time>2015-09-29T12:17:42Z</time>
      </trkpt>
      <trkpt lat="43.47142" lon="6.33279">
        <ele>140.49</ele>
        <time>2015-09-29T12:17:57Z</time>
      </trkpt>
      <trkpt lat="43.47141" lon="6.33278">
        <ele>140.01</ele>
        <time>2015-09-29T12:18:16Z</time>
      </trkpt>
      <trkpt lat="43.47141" lon="6.33279">
        <ele>140.49</ele>
        <time>2015-09-29T12:18:42Z</time>
      </trkpt>
      <trkpt lat="43.47141" lon="6.3328">
        <ele>140.97</ele>
        <time>2015-09-29T12:19:16Z</time>
      </trkpt>
      <trkpt lat="43.47139" lon="6.3328">
        <ele>140.49</ele>
        <time>2015-09-29T12:19:46Z</time>
      </trkpt>
      <trkpt lat="43.47138" lon="6.33278">
        <ele>140.49</ele>
        <time>2015-09-29T12:20:12Z</time>
      </trkpt>
      <trkpt lat="43.47139" lon="6.33278">
        <ele>140.97</ele>
        <time>2015-09-29T12:20:46Z</time>
      </trkpt>
      <trkpt lat="43.47138" lon="6.33276">
        <ele>140.97</ele>
        <time>2015-09-29T12:21:21Z</time>
      </trkpt>
      <trkpt lat="43.47138" lon="6.33276">
        <ele>140.97</ele>
        <time>2015-09-29T12:21:50Z</time>
      </trkpt>
      <trkpt lat="43.47137" lon="6.33276">
        <ele>140.97</ele>
        <time>2015-09-29T12:22:17Z</time>
      </trkpt>
      <trkpt lat="43.47137" lon="6.33276">
        <ele>140.97</ele>
        <time>2015-09-29T12:22:41Z</time>
      </trkpt>
      <trkpt lat="43.47137" lon="6.33276">
        <ele>140.97</ele>
        <time>2015-09-29T12:23:10Z</time>
      </trkpt>
      <trkpt lat="43.47137" lon="6.33276">
        <ele>141.45</ele>
        <time>2015-09-29T12:23:39Z</time>
      </trkpt>
      <trkpt lat="43.47138" lon="6.33273">
        <ele>140.49</ele>
        <time>2015-09-29T12:23:58Z</time>
      </trkpt>
      <trkpt lat="43.47138" lon="6.33274">
        <ele>140.97</ele>
        <time>2015-09-29T12:24:23Z</time>
      </trkpt>
      <trkpt lat="43.47133" lon="6.33274">
        <ele>140.97</ele>
        <time>2015-09-29T12:24:43Z</time>
      </trkpt>
      <trkpt lat="43.47134" lon="6.33272">
        <ele>140.97</ele>
        <time>2015-09-29T12:25:00Z</time>
      </trkpt>
      <trkpt lat="43.47133" lon="6.3327">
        <ele>140.97</ele>
        <time>2015-09-29T12:25:21Z</time>
      </trkpt>
      <trkpt lat="43.47134" lon="6.3326">
        <ele>140.01</ele>
        <time>2015-09-29T12:25:39Z</time>
      </trkpt>
      <trkpt lat="43.47135" lon="6.33254">
        <ele>139.53</ele>
        <time>2015-09-29T12:25:55Z</time>
      </trkpt>
      <trkpt lat="43.47139" lon="6.33242">
        <ele>139.05</ele>
        <time>2015-09-29T12:26:07Z</time>
      </trkpt>
      <trkpt lat="43.47142" lon="6.33228">
        <ele>137.61</ele>
        <time>2015-09-29T12:26:23Z</time>
      </trkpt>
      <trkpt lat="43.47145" lon="6.33214">
        <ele>136.64</ele>
        <time>2015-09-29T12:26:40Z</time>
      </trkpt>
      <trkpt lat="43.47148" lon="6.33198">
        <ele>134.72</ele>
        <time>2015-09-29T12:26:57Z</time>
      </trkpt>
      <trkpt lat="43.47151" lon="6.33182">
        <ele>133.28</ele>
        <time>2015-09-29T12:27:14Z</time>
      </trkpt>
      <trkpt lat="43.47155" lon="6.33163">
        <ele>131.84</ele>
        <time>2015-09-29T12:27:31Z</time>
      </trkpt>
      <trkpt lat="43.47158" lon="6.33152">
        <ele>130.88</ele>
        <time>2015-09-29T12:27:44Z</time>
      </trkpt>
      <trkpt lat="43.47164" lon="6.33133">
        <ele>129.43</ele>
        <time>2015-09-29T12:28:00Z</time>
      </trkpt>
      <trkpt lat="43.47162" lon="6.33122">
        <ele>128.47</ele>
        <time>2015-09-29T12:28:07Z</time>
      </trkpt>
      <trkpt lat="43.47154" lon="6.33098">
        <ele>127.03</ele>
        <time>2015-09-29T12:28:24Z</time>
      </trkpt>
      <trkpt lat="43.47154" lon="6.33098">
        <ele>127.51</ele>
        <time>2015-09-29T12:28:25Z</time>
      </trkpt>
      <trkpt lat="43.47152" lon="6.33084">
        <ele>126.07</ele>
        <time>2015-09-29T12:28:37Z</time>
      </trkpt>
      <trkpt lat="43.47146" lon="6.33071">
        <ele>125.11</ele>
        <time>2015-09-29T12:28:49Z</time>
      </trkpt>
      <trkpt lat="43.47145" lon="6.33069">
        <ele>125.11</ele>
        <time>2015-09-29T12:28:51Z</time>
      </trkpt>
      <trkpt lat="43.47135" lon="6.33058">
        <ele>124.15</ele>
        <time>2015-09-29T12:29:05Z</time>
      </trkpt>
      <trkpt lat="43.47126" lon="6.3305">
        <ele>122.71</ele>
        <time>2015-09-29T12:29:18Z</time>
      </trkpt>
      <trkpt lat="43.4712" lon="6.33045">
        <ele>121.74</ele>
        <time>2015-09-29T12:29:28Z</time>
      </trkpt>
      <trkpt lat="43.47107" lon="6.33036">
        <ele>120.78</ele>
        <time>2015-09-29T12:29:41Z</time>
      </trkpt>
      <trkpt lat="43.47097" lon="6.33026">
        <ele>119.82</ele>
        <time>2015-09-29T12:29:54Z</time>
      </trkpt>
      <trkpt lat="43.47089" lon="6.33015">
        <ele>118.86</ele>
        <time>2015-09-29T12:30:08Z</time>
      </trkpt>
      <trkpt lat="43.47078" lon="6.33004">
        <ele>117.9</ele>
        <time>2015-09-29T12:30:22Z</time>
      </trkpt>
      <trkpt lat="43.47075" lon="6.33">
        <ele>117.9</ele>
        <time>2015-09-29T12:30:26Z</time>
      </trkpt>
      <trkpt lat="43.47063" lon="6.32994">
        <ele>116.46</ele>
        <time>2015-09-29T12:30:40Z</time>
      </trkpt>
      <trkpt lat="43.47051" lon="6.32991">
        <ele>115.5</ele>
        <time>2015-09-29T12:30:53Z</time>
      </trkpt>
      <trkpt lat="43.47043" lon="6.32988">
        <ele>114.53</ele>
        <time>2015-09-29T12:31:04Z</time>
      </trkpt>
      <trkpt lat="43.47034" lon="6.32985">
        <ele>113.57</ele>
        <time>2015-09-29T12:31:18Z</time>
      </trkpt>
      <trkpt lat="43.47024" lon="6.32978">
        <ele>113.09</ele>
        <time>2015-09-29T12:31:30Z</time>
      </trkpt>
      <trkpt lat="43.47015" lon="6.32973">
        <ele>111.65</ele>
        <time>2015-09-29T12:31:44Z</time>
      </trkpt>
      <trkpt lat="43.47008" lon="6.32968">
        <ele>110.21</ele>
        <time>2015-09-29T12:31:56Z</time>
      </trkpt>
      <trkpt lat="43.47007" lon="6.32968">
        <ele>110.21</ele>
        <time>2015-09-29T12:31:58Z</time>
      </trkpt>
      <trkpt lat="43.47004" lon="6.32966">
        <ele>109.73</ele>
        <time>2015-09-29T12:32:03Z</time>
      </trkpt>
      <trkpt lat="43.47" lon="6.32962">
        <ele>109.25</ele>
        <time>2015-09-29T12:32:08Z</time>
      </trkpt>
      <trkpt lat="43.46996" lon="6.32957">
        <ele>108.77</ele>
        <time>2015-09-29T12:32:14Z</time>
      </trkpt>
      <trkpt lat="43.46995" lon="6.32955">
        <ele>108.77</ele>
        <time>2015-09-29T12:32:16Z</time>
      </trkpt>
      <trkpt lat="43.4699" lon="6.32946">
        <ele>107.81</ele>
        <time>2015-09-29T12:32:27Z</time>
      </trkpt>
      <trkpt lat="43.46989" lon="6.3294">
        <ele>107.32</ele>
        <time>2015-09-29T12:32:41Z</time>
      </trkpt>
      <trkpt lat="43.46989" lon="6.32941">
        <ele>107.32</ele>
        <time>2015-09-29T12:32:56Z</time>
      </trkpt>
      <trkpt lat="43.46989" lon="6.32943">
        <ele>107.32</ele>
        <time>2015-09-29T12:33:22Z</time>
      </trkpt>
      <trkpt lat="43.46988" lon="6.32942">
        <ele>107.32</ele>
        <time>2015-09-29T12:33:49Z</time>
      </trkpt>
      <trkpt lat="43.46989" lon="6.32941">
        <ele>107.81</ele>
        <time>2015-09-29T12:34:15Z</time>
      </trkpt>
      <trkpt lat="43.46988" lon="6.32941">
        <ele>107.81</ele>
        <time>2015-09-29T12:34:40Z</time>
      </trkpt>
      <trkpt lat="43.46987" lon="6.32939">
        <ele>107.81</ele>
        <time>2015-09-29T12:35:02Z</time>
      </trkpt>
      <trkpt lat="43.46982" lon="6.32924">
        <ele>106.36</ele>
        <time>2015-09-29T12:35:17Z</time>
      </trkpt>
      <trkpt lat="43.46979" lon="6.32916">
        <ele>104.92</ele>
        <time>2015-09-29T12:35:28Z</time>
      </trkpt>
      <trkpt lat="43.46974" lon="6.32906">
        <ele>103.48</ele>
        <time>2015-09-29T12:35:42Z</time>
      </trkpt>
      <trkpt lat="43.46968" lon="6.32895">
        <ele>101.56</ele>
        <time>2015-09-29T12:35:55Z</time>
      </trkpt>
      <trkpt lat="43.46966" lon="6.32884">
        <ele>100.6</ele>
        <time>2015-09-29T12:36:06Z</time>
      </trkpt>
      <trkpt lat="43.46964" lon="6.32877">
        <ele>99.63</ele>
        <time>2015-09-29T12:36:13Z</time>
      </trkpt>
      <trkpt lat="43.4696" lon="6.32867">
        <ele>97.71</ele>
        <time>2015-09-29T12:36:29Z</time>
      </trkpt>
      <trkpt lat="43.46958" lon="6.32864">
        <ele>97.71</ele>
        <time>2015-09-29T12:36:46Z</time>
      </trkpt>
      <trkpt lat="43.46954" lon="6.32858">
        <ele>96.75</ele>
        <time>2015-09-29T12:37:01Z</time>
      </trkpt>
      <trkpt lat="43.46952" lon="6.32851">
        <ele>95.79</ele>
        <time>2015-09-29T12:37:12Z</time>
      </trkpt>
      <trkpt lat="43.46949" lon="6.32843">
        <ele>94.35</ele>
        <time>2015-09-29T12:37:26Z</time>
      </trkpt>
      <trkpt lat="43.46946" lon="6.32838">
        <ele>93.39</ele>
        <time>2015-09-29T12:37:40Z</time>
      </trkpt>
      <trkpt lat="43.46946" lon="6.32836">
        <ele>93.39</ele>
        <time>2015-09-29T12:37:53Z</time>
      </trkpt>
      <trkpt lat="43.46943" lon="6.32835">
        <ele>93.39</ele>
        <time>2015-09-29T12:38:11Z</time>
      </trkpt>
      <trkpt lat="43.46944" lon="6.32833">
        <ele>92.9</ele>
        <time>2015-09-29T12:38:33Z</time>
      </trkpt>
      <trkpt lat="43.46943" lon="6.32828">
        <ele>92.9</ele>
        <time>2015-09-29T12:39:01Z</time>
      </trkpt>
      <trkpt lat="43.46943" lon="6.32825">
        <ele>92.42</ele>
        <time>2015-09-29T12:39:04Z</time>
      </trkpt>
      <trkpt lat="43.46944" lon="6.32825">
        <ele>92.42</ele>
        <time>2015-09-29T12:39:17Z</time>
      </trkpt>
      <trkpt lat="43.46947" lon="6.32826">
        <ele>92.42</ele>
        <time>2015-09-29T12:39:32Z</time>
      </trkpt>
      <trkpt lat="43.46945" lon="6.32826">
        <ele>91.94</ele>
        <time>2015-09-29T12:39:45Z</time>
      </trkpt>
      <trkpt lat="43.46946" lon="6.32829">
        <ele>92.42</ele>
        <time>2015-09-29T12:40:02Z</time>
      </trkpt>
      <trkpt lat="43.46946" lon="6.32829">
        <ele>92.42</ele>
        <time>2015-09-29T12:40:26Z</time>
      </trkpt>
      <trkpt lat="43.46945" lon="6.32829">
        <ele>92.9</ele>
        <time>2015-09-29T12:41:05Z</time>
      </trkpt>
      <trkpt lat="43.46944" lon="6.32828">
        <ele>93.39</ele>
        <time>2015-09-29T12:41:35Z</time>
      </trkpt>
      <trkpt lat="43.46943" lon="6.32828">
        <ele>93.39</ele>
        <time>2015-09-29T12:41:59Z</time>
      </trkpt>
      <trkpt lat="43.46942" lon="6.32828">
        <ele>92.9</ele>
        <time>2015-09-29T12:42:18Z</time>
      </trkpt>
      <trkpt lat="43.46943" lon="6.32827">
        <ele>92.9</ele>
        <time>2015-09-29T12:42:40Z</time>
      </trkpt>
      <trkpt lat="43.46943" lon="6.32828">
        <ele>92.9</ele>
        <time>2015-09-29T12:42:58Z</time>
      </trkpt>
      <trkpt lat="43.46945" lon="6.32829">
        <ele>92.9</ele>
        <time>2015-09-29T12:43:18Z</time>
      </trkpt>
      <trkpt lat="43.46947" lon="6.3283">
        <ele>92.9</ele>
        <time>2015-09-29T12:43:35Z</time>
      </trkpt>
      <trkpt lat="43.46948" lon="6.32827">
        <ele>92.9</ele>
        <time>2015-09-29T12:43:55Z</time>
      </trkpt>
      <trkpt lat="43.46949" lon="6.32827">
        <ele>93.39</ele>
        <time>2015-09-29T12:44:11Z</time>
      </trkpt>
      <trkpt lat="43.46947" lon="6.32825">
        <ele>92.9</ele>
        <time>2015-09-29T12:44:22Z</time>
      </trkpt>
      <trkpt lat="43.46947" lon="6.32829">
        <ele>92.9</ele>
        <time>2015-09-29T12:44:38Z</time>
      </trkpt>
      <trkpt lat="43.46949" lon="6.32832">
        <ele>93.39</ele>
        <time>2015-09-29T12:44:53Z</time>
      </trkpt>
      <trkpt lat="43.46949" lon="6.32832">
        <ele>92.9</ele>
        <time>2015-09-29T12:45:22Z</time>
      </trkpt>
      <trkpt lat="43.46949" lon="6.32826">
        <ele>92.9</ele>
        <time>2015-09-29T12:45:43Z</time>
      </trkpt>
      <trkpt lat="43.46947" lon="6.32816">
        <ele>92.42</ele>
        <time>2015-09-29T12:45:58Z</time>
      </trkpt>
      <trkpt lat="43.46943" lon="6.32806">
        <ele>92.42</ele>
        <time>2015-09-29T12:46:11Z</time>
      </trkpt>
      <trkpt lat="43.46941" lon="6.32797">
        <ele>92.42</ele>
        <time>2015-09-29T12:46:20Z</time>
      </trkpt>
      <trkpt lat="43.46934" lon="6.32783">
        <ele>92.42</ele>
        <time>2015-09-29T12:46:35Z</time>
      </trkpt>
      <trkpt lat="43.46923" lon="6.32773">
        <ele>92.42</ele>
        <time>2015-09-29T12:46:50Z</time>
      </trkpt>
      <trkpt lat="43.46919" lon="6.32766">
        <ele>92.42</ele>
        <time>2015-09-29T12:47:03Z</time>
      </trkpt>
      <trkpt lat="43.46914" lon="6.32759">
        <ele>92.9</ele>
        <time>2015-09-29T12:47:15Z</time>
      </trkpt>
      <trkpt lat="43.46909" lon="6.32754">
        <ele>93.39</ele>
        <time>2015-09-29T12:47:23Z</time>
      </trkpt>
      <trkpt lat="43.46903" lon="6.32746">
        <ele>93.39</ele>
        <time>2015-09-29T12:47:30Z</time>
      </trkpt>
      <trkpt lat="43.46898" lon="6.32743">
        <ele>93.39</ele>
        <time>2015-09-29T12:47:34Z</time>
      </trkpt>
      <trkpt lat="43.46878" lon="6.32732">
        <ele>93.87</ele>
        <time>2015-09-29T12:47:50Z</time>
      </trkpt>
      <trkpt lat="43.46872" lon="6.32727">
        <ele>93.87</ele>
        <time>2015-09-29T12:47:57Z</time>
      </trkpt>
      <trkpt lat="43.46857" lon="6.32726">
        <ele>94.35</ele>
        <time>2015-09-29T12:48:14Z</time>
      </trkpt>
      <trkpt lat="43.46853" lon="6.32725">
        <ele>94.83</ele>
        <time>2015-09-29T12:48:28Z</time>
      </trkpt>
      <trkpt lat="43.46851" lon="6.32725">
        <ele>94.83</ele>
        <time>2015-09-29T12:48:43Z</time>
      </trkpt>
      <trkpt lat="43.4685" lon="6.32725">
        <ele>94.83</ele>
        <time>2015-09-29T12:48:56Z</time>
      </trkpt>
      <trkpt lat="43.4685" lon="6.32727">
        <ele>94.83</ele>
        <time>2015-09-29T12:49:20Z</time>
      </trkpt>
      <trkpt lat="43.46849" lon="6.32728">
        <ele>94.83</ele>
        <time>2015-09-29T12:49:45Z</time>
      </trkpt>
      <trkpt lat="43.4685" lon="6.32728">
        <ele>94.83</ele>
        <time>2015-09-29T12:50:20Z</time>
      </trkpt>
      <trkpt lat="43.4685" lon="6.3273">
        <ele>94.35</ele>
        <time>2015-09-29T12:50:53Z</time>
      </trkpt>
      <trkpt lat="43.4685" lon="6.32731">
        <ele>94.83</ele>
        <time>2015-09-29T12:51:19Z</time>
      </trkpt>
      <trkpt lat="43.4685" lon="6.32734">
        <ele>94.83</ele>
        <time>2015-09-29T12:51:50Z</time>
      </trkpt>
      <trkpt lat="43.4685" lon="6.32734">
        <ele>94.35</ele>
        <time>2015-09-29T12:52:09Z</time>
      </trkpt>
      <trkpt lat="43.46849" lon="6.32735">
        <ele>94.35</ele>
        <time>2015-09-29T12:52:39Z</time>
      </trkpt>
      <trkpt lat="43.46856" lon="6.32735">
        <ele>94.35</ele>
        <time>2015-09-29T12:52:54Z</time>
      </trkpt>
      <trkpt lat="43.46864" lon="6.32738">
        <ele>93.39</ele>
        <time>2015-09-29T12:53:09Z</time>
      </trkpt>
      <trkpt lat="43.4687" lon="6.32738">
        <ele>93.39</ele>
        <time>2015-09-29T12:53:15Z</time>
      </trkpt>
      <trkpt lat="43.46874" lon="6.32739">
        <ele>93.39</ele>
        <time>2015-09-29T12:53:19Z</time>
      </trkpt>
      <trkpt lat="43.46886" lon="6.32748">
        <ele>92.9</ele>
        <time>2015-09-29T12:53:36Z</time>
      </trkpt>
      <trkpt lat="43.46897" lon="6.32756">
        <ele>92.9</ele>
        <time>2015-09-29T12:53:51Z</time>
      </trkpt>
      <trkpt lat="43.46909" lon="6.32769">
        <ele>92.42</ele>
        <time>2015-09-29T12:54:07Z</time>
      </trkpt>
      <trkpt lat="43.46919" lon="6.32781">
        <ele>91.94</ele>
        <time>2015-09-29T12:54:22Z</time>
      </trkpt>
      <trkpt lat="43.46924" lon="6.32789">
        <ele>91.94</ele>
        <time>2015-09-29T12:54:33Z</time>
      </trkpt>
      <trkpt lat="43.46933" lon="6.32806">
        <ele>91.94</ele>
        <time>2015-09-29T12:54:48Z</time>
      </trkpt>
      <trkpt lat="43.46937" lon="6.32818">
        <ele>91.94</ele>
        <time>2015-09-29T12:55:03Z</time>
      </trkpt>
      <trkpt lat="43.46942" lon="6.3283">
        <ele>92.42</ele>
        <time>2015-09-29T12:55:17Z</time>
      </trkpt>
      <trkpt lat="43.46945" lon="6.3283">
        <ele>92.42</ele>
        <time>2015-09-29T12:55:36Z</time>
      </trkpt>
      <trkpt lat="43.46949" lon="6.32826">
        <ele>92.42</ele>
        <time>2015-09-29T12:55:58Z</time>
      </trkpt>
      <trkpt lat="43.4695" lon="6.32825">
        <ele>92.42</ele>
        <time>2015-09-29T12:56:29Z</time>
      </trkpt>
      <trkpt lat="43.46951" lon="6.32824">
        <ele>92.42</ele>
        <time>2015-09-29T12:56:49Z</time>
      </trkpt>
      <trkpt lat="43.46951" lon="6.32824">
        <ele>92.42</ele>
        <time>2015-09-29T12:57:19Z</time>
      </trkpt>
      <trkpt lat="43.4695" lon="6.32827">
        <ele>92.42</ele>
        <time>2015-09-29T12:57:35Z</time>
      </trkpt>
      <trkpt lat="43.4695" lon="6.32827">
        <ele>92.42</ele>
        <time>2015-09-29T12:58:08Z</time>
      </trkpt>
      <trkpt lat="43.4695" lon="6.32828">
        <ele>92.42</ele>
        <time>2015-09-29T12:58:33Z</time>
      </trkpt>
      <trkpt lat="43.4695" lon="6.32827">
        <ele>92.9</ele>
        <time>2015-09-29T12:59:05Z</time>
      </trkpt>
      <trkpt lat="43.4695" lon="6.32828">
        <ele>92.9</ele>
        <time>2015-09-29T12:59:38Z</time>
      </trkpt>
      <trkpt lat="43.4695" lon="6.32828">
        <ele>92.9</ele>
        <time>2015-09-29T12:59:59Z</time>
      </trkpt>
      <trkpt lat="43.4695" lon="6.32828">
        <ele>92.9</ele>
        <time>2015-09-29T13:00:30Z</time>
      </trkpt>
      <trkpt lat="43.4695" lon="6.32828">
        <ele>92.9</ele>
        <time>2015-09-29T13:00:48Z</time>
      </trkpt>
      <trkpt lat="43.46951" lon="6.32828">
        <ele>92.9</ele>
        <time>2015-09-29T13:01:19Z</time>
      </trkpt>
      <trkpt lat="43.46952" lon="6.32828">
        <ele>92.9</ele>
        <time>2015-09-29T13:01:48Z</time>
      </trkpt>
      <trkpt lat="43.46953" lon="6.32828">
        <ele>92.9</ele>
        <time>2015-09-29T13:02:15Z</time>
      </trkpt>
      <trkpt lat="43.46953" lon="6.32828">
        <ele>92.9</ele>
        <time>2015-09-29T13:02:31Z</time>
      </trkpt>
      <trkpt lat="43.46954" lon="6.32833">
        <ele>93.39</ele>
        <time>2015-09-29T13:02:53Z</time>
      </trkpt>
      <trkpt lat="43.46963" lon="6.32848">
        <ele>93.87</ele>
        <time>2015-09-29T13:03:11Z</time>
      </trkpt>
      <trkpt lat="43.46972" lon="6.32861">
        <ele>93.87</ele>
        <time>2015-09-29T13:03:27Z</time>
      </trkpt>
      <trkpt lat="43.4698" lon="6.32877">
        <ele>94.35</ele>
        <time>2015-09-29T13:03:44Z</time>
      </trkpt>
      <trkpt lat="43.46987" lon="6.32889">
        <ele>94.83</ele>
        <time>2015-09-29T13:03:57Z</time>
      </trkpt>
      <trkpt lat="43.46997" lon="6.32906">
        <ele>95.31</ele>
        <time>2015-09-29T13:04:13Z</time>
      </trkpt>
      <trkpt lat="43.47003" lon="6.32919">
        <ele>95.31</ele>
        <time>2015-09-29T13:04:25Z</time>
      </trkpt>
      <trkpt lat="43.47008" lon="6.32926">
        <ele>95.31</ele>
        <time>2015-09-29T13:04:32Z</time>
      </trkpt>
      <trkpt lat="43.47011" lon="6.32929">
        <ele>95.31</ele>
        <time>2015-09-29T13:04:35Z</time>
      </trkpt>
      <trkpt lat="43.47025" lon="6.32942">
        <ele>95.79</ele>
        <time>2015-09-29T13:04:53Z</time>
      </trkpt>
      <trkpt lat="43.47038" lon="6.3295">
        <ele>95.79</ele>
        <time>2015-09-29T13:05:10Z</time>
      </trkpt>
      <trkpt lat="43.4705" lon="6.3295">
        <ele>96.27</ele>
        <time>2015-09-29T13:05:24Z</time>
      </trkpt>
      <trkpt lat="43.47066" lon="6.32942">
        <ele>96.75</ele>
        <time>2015-09-29T13:05:40Z</time>
      </trkpt>
      <trkpt lat="43.47084" lon="6.32938">
        <ele>96.75</ele>
        <time>2015-09-29T13:05:55Z</time>
      </trkpt>
      <trkpt lat="43.47085" lon="6.32938">
        <ele>96.75</ele>
        <time>2015-09-29T13:05:56Z</time>
      </trkpt>
      <trkpt lat="43.47089" lon="6.32935">
        <ele>96.75</ele>
        <time>2015-09-29T13:06:00Z</time>
      </trkpt>
      <trkpt lat="43.47098" lon="6.32927">
        <ele>96.75</ele>
        <time>2015-09-29T13:06:09Z</time>
      </trkpt>
      <trkpt lat="43.47101" lon="6.32923">
        <ele>96.27</ele>
        <time>2015-09-29T13:06:14Z</time>
      </trkpt>
      <trkpt lat="43.47104" lon="6.32918">
        <ele>96.75</ele>
        <time>2015-09-29T13:06:17Z</time>
      </trkpt>
      <trkpt lat="43.47114" lon="6.32901">
        <ele>96.27</ele>
        <time>2015-09-29T13:06:32Z</time>
      </trkpt>
      <trkpt lat="43.47114" lon="6.32899">
        <ele>96.75</ele>
        <time>2015-09-29T13:06:34Z</time>
      </trkpt>
      <trkpt lat="43.47117" lon="6.32894">
        <ele>96.75</ele>
        <time>2015-09-29T13:06:38Z</time>
      </trkpt>
      <trkpt lat="43.47124" lon="6.32876">
        <ele>96.75</ele>
        <time>2015-09-29T13:06:52Z</time>
      </trkpt>
      <trkpt lat="43.47126" lon="6.32873">
        <ele>96.75</ele>
        <time>2015-09-29T13:06:54Z</time>
      </trkpt>
      <trkpt lat="43.47128" lon="6.3287">
        <ele>96.75</ele>
        <time>2015-09-29T13:06:57Z</time>
      </trkpt>
      <trkpt lat="43.47135" lon="6.32856">
        <ele>96.75</ele>
        <time>2015-09-29T13:07:10Z</time>
      </trkpt>
      <trkpt lat="43.47138" lon="6.32849">
        <ele>96.75</ele>
        <time>2015-09-29T13:07:17Z</time>
      </trkpt>
      <trkpt lat="43.47142" lon="6.32844">
        <ele>96.75</ele>
        <time>2015-09-29T13:07:23Z</time>
      </trkpt>
      <trkpt lat="43.47146" lon="6.32837">
        <ele>97.23</ele>
        <time>2015-09-29T13:07:29Z</time>
      </trkpt>
      <trkpt lat="43.47151" lon="6.3283">
        <ele>97.23</ele>
        <time>2015-09-29T13:07:36Z</time>
      </trkpt>
      <trkpt lat="43.47153" lon="6.32828">
        <ele>97.23</ele>
        <time>2015-09-29T13:07:40Z</time>
      </trkpt>
      <trkpt lat="43.47154" lon="6.32824">
        <ele>97.23</ele>
        <time>2015-09-29T13:07:44Z</time>
      </trkpt>
      <trkpt lat="43.47158" lon="6.32818">
        <ele>97.23</ele>
        <time>2015-09-29T13:07:51Z</time>
      </trkpt>
      <trkpt lat="43.47162" lon="6.32812">
        <ele>97.23</ele>
        <time>2015-09-29T13:07:58Z</time>
      </trkpt>
      <trkpt lat="43.47177" lon="6.32798">
        <ele>97.23</ele>
        <time>2015-09-29T13:08:14Z</time>
      </trkpt>
      <trkpt lat="43.47188" lon="6.32791">
        <ele>97.71</ele>
        <time>2015-09-29T13:08:26Z</time>
      </trkpt>
      <trkpt lat="43.47204" lon="6.32783">
        <ele>98.19</ele>
        <time>2015-09-29T13:08:43Z</time>
      </trkpt>
      <trkpt lat="43.47208" lon="6.32783">
        <ele>98.19</ele>
        <time>2015-09-29T13:08:48Z</time>
      </trkpt>
      <trkpt lat="43.47213" lon="6.32781">
        <ele>98.67</ele>
        <time>2015-09-29T13:08:55Z</time>
      </trkpt>
      <trkpt lat="43.47228" lon="6.3278">
        <ele>99.15</ele>
        <time>2015-09-29T13:09:10Z</time>
      </trkpt>
      <trkpt lat="43.47245" lon="6.32775">
        <ele>100.11</ele>
        <time>2015-09-29T13:09:25Z</time>
      </trkpt>
      <trkpt lat="43.47248" lon="6.32776">
        <ele>100.11</ele>
        <time>2015-09-29T13:09:28Z</time>
      </trkpt>
      <trkpt lat="43.47265" lon="6.3278">
        <ele>100.6</ele>
        <time>2015-09-29T13:09:44Z</time>
      </trkpt>
      <trkpt lat="43.4728" lon="6.32787">
        <ele>100.6</ele>
        <time>2015-09-29T13:09:58Z</time>
      </trkpt>
      <trkpt lat="43.4729" lon="6.32792">
        <ele>101.08</ele>
        <time>2015-09-29T13:10:09Z</time>
      </trkpt>
      <trkpt lat="43.47295" lon="6.32798">
        <ele>101.08</ele>
        <time>2015-09-29T13:10:15Z</time>
      </trkpt>
      <trkpt lat="43.47301" lon="6.32801">
        <ele>101.56</ele>
        <time>2015-09-29T13:10:27Z</time>
      </trkpt>
      <trkpt lat="43.47304" lon="6.32805">
        <ele>101.08</ele>
        <time>2015-09-29T13:10:31Z</time>
      </trkpt>
      <trkpt lat="43.4731" lon="6.3281">
        <ele>101.56</ele>
        <time>2015-09-29T13:10:40Z</time>
      </trkpt>
      <trkpt lat="43.47321" lon="6.32821">
        <ele>102.04</ele>
        <time>2015-09-29T13:10:54Z</time>
      </trkpt>
      <trkpt lat="43.47329" lon="6.3283">
        <ele>102.04</ele>
        <time>2015-09-29T13:11:03Z</time>
      </trkpt>
      <trkpt lat="43.47343" lon="6.32846">
        <ele>102.52</ele>
        <time>2015-09-29T13:11:19Z</time>
      </trkpt>
      <trkpt lat="43.47353" lon="6.3286">
        <ele>102.52</ele>
        <time>2015-09-29T13:11:33Z</time>
      </trkpt>
      <trkpt lat="43.47355" lon="6.32862">
        <ele>103</ele>
        <time>2015-09-29T13:11:36Z</time>
      </trkpt>
      <trkpt lat="43.47362" lon="6.32878">
        <ele>103</ele>
        <time>2015-09-29T13:11:50Z</time>
      </trkpt>
      <trkpt lat="43.47368" lon="6.32897">
        <ele>103.48</ele>
        <time>2015-09-29T13:12:04Z</time>
      </trkpt>
      <trkpt lat="43.4737" lon="6.32907">
        <ele>103.48</ele>
        <time>2015-09-29T13:12:12Z</time>
      </trkpt>
      <trkpt lat="43.47372" lon="6.32913">
        <ele>103.48</ele>
        <time>2015-09-29T13:12:16Z</time>
      </trkpt>
      <trkpt lat="43.47382" lon="6.32929">
        <ele>103.48</ele>
        <time>2015-09-29T13:12:30Z</time>
      </trkpt>
      <trkpt lat="43.47388" lon="6.32938">
        <ele>103.48</ele>
        <time>2015-09-29T13:12:37Z</time>
      </trkpt>
      <trkpt lat="43.47393" lon="6.32938">
        <ele>103.48</ele>
        <time>2015-09-29T13:12:42Z</time>
      </trkpt>
      <trkpt lat="43.47396" lon="6.32938">
        <ele>103.48</ele>
        <time>2015-09-29T13:12:45Z</time>
      </trkpt>
      <trkpt lat="43.47402" lon="6.32934">
        <ele>103.48</ele>
        <time>2015-09-29T13:12:59Z</time>
      </trkpt>
      <trkpt lat="43.47404" lon="6.32935">
        <ele>103.48</ele>
        <time>2015-09-29T13:13:14Z</time>
      </trkpt>
      <trkpt lat="43.47408" lon="6.32928">
        <ele>103.48</ele>
        <time>2015-09-29T13:13:36Z</time>
      </trkpt>
      <trkpt lat="43.47409" lon="6.32924">
        <ele>103.48</ele>
        <time>2015-09-29T13:14:02Z</time>
      </trkpt>
      <trkpt lat="43.47408" lon="6.32923">
        <ele>103</ele>
        <time>2015-09-29T13:14:30Z</time>
      </trkpt>
      <trkpt lat="43.47409" lon="6.32921">
        <ele>104.44</ele>
        <time>2015-09-29T13:15:01Z</time>
      </trkpt>
      <trkpt lat="43.4741" lon="6.32924">
        <ele>103.48</ele>
        <time>2015-09-29T13:15:19Z</time>
      </trkpt>
      <trkpt lat="43.47411" lon="6.32924">
        <ele>103.48</ele>
        <time>2015-09-29T13:15:43Z</time>
      </trkpt>
      <trkpt lat="43.47412" lon="6.32924">
        <ele>103.48</ele>
        <time>2015-09-29T13:16:12Z</time>
      </trkpt>
      <trkpt lat="43.47413" lon="6.32924">
        <ele>103.48</ele>
        <time>2015-09-29T13:16:39Z</time>
      </trkpt>
      <trkpt lat="43.47413" lon="6.32924">
        <ele>103.48</ele>
        <time>2015-09-29T13:17:05Z</time>
      </trkpt>
      <trkpt lat="43.47416" lon="6.32921">
        <ele>103.48</ele>
        <time>2015-09-29T13:17:23Z</time>
      </trkpt>
      <trkpt lat="43.47423" lon="6.32915">
        <ele>103.48</ele>
        <time>2015-09-29T13:17:39Z</time>
      </trkpt>
      <trkpt lat="43.47432" lon="6.32901">
        <ele>103.48</ele>
        <time>2015-09-29T13:17:52Z</time>
      </trkpt>
      <trkpt lat="43.47436" lon="6.32897">
        <ele>103.48</ele>
        <time>2015-09-29T13:17:57Z</time>
      </trkpt>
      <trkpt lat="43.47446" lon="6.32888">
        <ele>103.96</ele>
        <time>2015-09-29T13:18:11Z</time>
      </trkpt>
      <trkpt lat="43.47455" lon="6.32877">
        <ele>103.96</ele>
        <time>2015-09-29T13:18:24Z</time>
      </trkpt>
      <trkpt lat="43.47464" lon="6.32868">
        <ele>103.96</ele>
        <time>2015-09-29T13:18:36Z</time>
      </trkpt>
      <trkpt lat="43.47465" lon="6.32868">
        <ele>103.96</ele>
        <time>2015-09-29T13:18:51Z</time>
      </trkpt>
      <trkpt lat="43.47467" lon="6.32862">
        <ele>103.96</ele>
        <time>2015-09-29T13:19:08Z</time>
      </trkpt>
      <trkpt lat="43.47469" lon="6.32859">
        <ele>104.44</ele>
        <time>2015-09-29T13:19:23Z</time>
      </trkpt>
      <trkpt lat="43.47476" lon="6.32853">
        <ele>104.44</ele>
        <time>2015-09-29T13:19:37Z</time>
      </trkpt>
      <trkpt lat="43.4748" lon="6.3285">
        <ele>104.44</ele>
        <time>2015-09-29T13:19:55Z</time>
      </trkpt>
      <trkpt lat="43.47479" lon="6.32849">
        <ele>104.44</ele>
        <time>2015-09-29T13:20:24Z</time>
      </trkpt>
      <trkpt lat="43.47485" lon="6.32843">
        <ele>104.92</ele>
        <time>2015-09-29T13:20:42Z</time>
      </trkpt>
      <trkpt lat="43.4749" lon="6.32836">
        <ele>104.92</ele>
        <time>2015-09-29T13:20:51Z</time>
      </trkpt>
      <trkpt lat="43.47496" lon="6.32834">
        <ele>104.92</ele>
        <time>2015-09-29T13:20:59Z</time>
      </trkpt>
      <trkpt lat="43.47504" lon="6.32828">
        <ele>105.4</ele>
        <time>2015-09-29T13:21:11Z</time>
      </trkpt>
      <trkpt lat="43.47513" lon="6.32818">
        <ele>105.4</ele>
        <time>2015-09-29T13:21:25Z</time>
      </trkpt>
      <trkpt lat="43.47525" lon="6.3281">
        <ele>105.88</ele>
        <time>2015-09-29T13:21:40Z</time>
      </trkpt>
      <trkpt lat="43.47535" lon="6.32811">
        <ele>106.36</ele>
        <time>2015-09-29T13:21:55Z</time>
      </trkpt>
      <trkpt lat="43.47543" lon="6.32814">
        <ele>106.84</ele>
        <time>2015-09-29T13:22:09Z</time>
      </trkpt>
      <trkpt lat="43.47548" lon="6.32816">
        <ele>106.84</ele>
        <time>2015-09-29T13:22:19Z</time>
      </trkpt>
      <trkpt lat="43.47561" lon="6.32822">
        <ele>107.32</ele>
        <time>2015-09-29T13:22:34Z</time>
      </trkpt>
      <trkpt lat="43.4757" lon="6.32829">
        <ele>107.32</ele>
        <time>2015-09-29T13:22:46Z</time>
      </trkpt>
      <trkpt lat="43.47577" lon="6.32844">
        <ele>107.32</ele>
        <time>2015-09-29T13:23:01Z</time>
      </trkpt>
      <trkpt lat="43.47582" lon="6.32859">
        <ele>107.32</ele>
        <time>2015-09-29T13:23:15Z</time>
      </trkpt>
      <trkpt lat="43.47588" lon="6.32879">
        <ele>107.32</ele>
        <time>2015-09-29T13:23:32Z</time>
      </trkpt>
      <trkpt lat="43.47593" lon="6.32897">
        <ele>107.81</ele>
        <time>2015-09-29T13:23:47Z</time>
      </trkpt>
      <trkpt lat="43.47597" lon="6.32909">
        <ele>108.29</ele>
        <time>2015-09-29T13:23:59Z</time>
      </trkpt>
      <trkpt lat="43.47603" lon="6.32928">
        <ele>108.77</ele>
        <time>2015-09-29T13:24:16Z</time>
      </trkpt>
      <trkpt lat="43.47607" lon="6.32941">
        <ele>108.77</ele>
        <time>2015-09-29T13:24:25Z</time>
      </trkpt>
      <trkpt lat="43.47616" lon="6.32957">
        <ele>109.25</ele>
        <time>2015-09-29T13:24:40Z</time>
      </trkpt>
      <trkpt lat="43.4762" lon="6.32967">
        <ele>109.25</ele>
        <time>2015-09-29T13:24:48Z</time>
      </trkpt>
      <trkpt lat="43.47628" lon="6.32982">
        <ele>108.77</ele>
        <time>2015-09-29T13:25:03Z</time>
      </trkpt>
      <trkpt lat="43.47637" lon="6.33">
        <ele>109.73</ele>
        <time>2015-09-29T13:25:20Z</time>
      </trkpt>
      <trkpt lat="43.4764" lon="6.33005">
        <ele>109.73</ele>
        <time>2015-09-29T13:25:25Z</time>
      </trkpt>
      <trkpt lat="43.47643" lon="6.33021">
        <ele>110.21</ele>
        <time>2015-09-29T13:25:39Z</time>
      </trkpt>
      <trkpt lat="43.47645" lon="6.33027">
        <ele>109.73</ele>
        <time>2015-09-29T13:25:43Z</time>
      </trkpt>
      <trkpt lat="43.47652" lon="6.33052">
        <ele>110.21</ele>
        <time>2015-09-29T13:26:02Z</time>
      </trkpt>
      <trkpt lat="43.47654" lon="6.33061">
        <ele>110.21</ele>
        <time>2015-09-29T13:26:09Z</time>
      </trkpt>
      <trkpt lat="43.47657" lon="6.3307">
        <ele>110.21</ele>
        <time>2015-09-29T13:26:16Z</time>
      </trkpt>
      <trkpt lat="43.47664" lon="6.33086">
        <ele>110.69</ele>
        <time>2015-09-29T13:26:30Z</time>
      </trkpt>
      <trkpt lat="43.47673" lon="6.33097">
        <ele>110.69</ele>
        <time>2015-09-29T13:26:42Z</time>
      </trkpt>
      <trkpt lat="43.47684" lon="6.33112">
        <ele>110.69</ele>
        <time>2015-09-29T13:26:58Z</time>
      </trkpt>
      <trkpt lat="43.47694" lon="6.33124">
        <ele>111.17</ele>
        <time>2015-09-29T13:27:12Z</time>
      </trkpt>
      <trkpt lat="43.47701" lon="6.33131">
        <ele>111.17</ele>
        <time>2015-09-29T13:27:21Z</time>
      </trkpt>
      <trkpt lat="43.47705" lon="6.33136">
        <ele>111.17</ele>
        <time>2015-09-29T13:27:27Z</time>
      </trkpt>
      <trkpt lat="43.47718" lon="6.33153">
        <ele>111.65</ele>
        <time>2015-09-29T13:27:45Z</time>
      </trkpt>
      <trkpt lat="43.47725" lon="6.33166">
        <ele>112.13</ele>
        <time>2015-09-29T13:28:00Z</time>
      </trkpt>
      <trkpt lat="43.47726" lon="6.33169">
        <ele>112.61</ele>
        <time>2015-09-29T13:28:17Z</time>
      </trkpt>
      <trkpt lat="43.47726" lon="6.33169">
        <ele>112.61</ele>
        <time>2015-09-29T13:28:41Z</time>
      </trkpt>
      <trkpt lat="43.47726" lon="6.3317">
        <ele>112.61</ele>
        <time>2015-09-29T13:29:05Z</time>
      </trkpt>
      <trkpt lat="43.47726" lon="6.33169">
        <ele>112.61</ele>
        <time>2015-09-29T13:29:28Z</time>
      </trkpt>
      <trkpt lat="43.47726" lon="6.33167">
        <ele>112.61</ele>
        <time>2015-09-29T13:29:54Z</time>
      </trkpt>
      <trkpt lat="43.47726" lon="6.33169">
        <ele>113.09</ele>
        <time>2015-09-29T13:30:13Z</time>
      </trkpt>
      <trkpt lat="43.47726" lon="6.3317">
        <ele>113.57</ele>
        <time>2015-09-29T13:30:28Z</time>
      </trkpt>
      <trkpt lat="43.47726" lon="6.33171">
        <ele>115.01</ele>
        <time>2015-09-29T13:30:50Z</time>
      </trkpt>
      <trkpt lat="43.47733" lon="6.33178">
        <ele>113.57</ele>
        <time>2015-09-29T13:31:05Z</time>
      </trkpt>
      <trkpt lat="43.47741" lon="6.33191">
        <ele>113.57</ele>
        <time>2015-09-29T13:31:20Z</time>
      </trkpt>
      <trkpt lat="43.47748" lon="6.33205">
        <ele>113.57</ele>
        <time>2015-09-29T13:31:33Z</time>
      </trkpt>
      <trkpt lat="43.47753" lon="6.3322">
        <ele>114.05</ele>
        <time>2015-09-29T13:31:47Z</time>
      </trkpt>
      <trkpt lat="43.47758" lon="6.33235">
        <ele>115.5</ele>
        <time>2015-09-29T13:32:01Z</time>
      </trkpt>
      <trkpt lat="43.47767" lon="6.33256">
        <ele>115.5</ele>
        <time>2015-09-29T13:32:20Z</time>
      </trkpt>
      <trkpt lat="43.47773" lon="6.3327">
        <ele>115.5</ele>
        <time>2015-09-29T13:32:33Z</time>
      </trkpt>
      <trkpt lat="43.47777" lon="6.33288">
        <ele>115.01</ele>
        <time>2015-09-29T13:32:48Z</time>
      </trkpt>
      <trkpt lat="43.47779" lon="6.33307">
        <ele>115.5</ele>
        <time>2015-09-29T13:33:04Z</time>
      </trkpt>
      <trkpt lat="43.47779" lon="6.3331">
        <ele>115.01</ele>
        <time>2015-09-29T13:33:06Z</time>
      </trkpt>
      <trkpt lat="43.47783" lon="6.33327">
        <ele>115.5</ele>
        <time>2015-09-29T13:33:20Z</time>
      </trkpt>
      <trkpt lat="43.47786" lon="6.33343">
        <ele>115.5</ele>
        <time>2015-09-29T13:33:33Z</time>
      </trkpt>
      <trkpt lat="43.4779" lon="6.33354">
        <ele>115.98</ele>
        <time>2015-09-29T13:33:41Z</time>
      </trkpt>
      <trkpt lat="43.47797" lon="6.33373">
        <ele>115.5</ele>
        <time>2015-09-29T13:33:58Z</time>
      </trkpt>
      <trkpt lat="43.47801" lon="6.33376">
        <ele>115.98</ele>
        <time>2015-09-29T13:34:12Z</time>
      </trkpt>
      <trkpt lat="43.47802" lon="6.33377">
        <ele>115.98</ele>
        <time>2015-09-29T13:34:14Z</time>
      </trkpt>
      <trkpt lat="43.47808" lon="6.3338">
        <ele>115.98</ele>
        <time>2015-09-29T13:34:21Z</time>
      </trkpt>
      <trkpt lat="43.47813" lon="6.33394">
        <ele>115.98</ele>
        <time>2015-09-29T13:34:35Z</time>
      </trkpt>
      <trkpt lat="43.47817" lon="6.3341">
        <ele>116.46</ele>
        <time>2015-09-29T13:34:49Z</time>
      </trkpt>
      <trkpt lat="43.47818" lon="6.33419">
        <ele>116.46</ele>
        <time>2015-09-29T13:34:56Z</time>
      </trkpt>
      <trkpt lat="43.47825" lon="6.33435">
        <ele>116.46</ele>
        <time>2015-09-29T13:35:10Z</time>
      </trkpt>
      <trkpt lat="43.47828" lon="6.33453">
        <ele>116.94</ele>
        <time>2015-09-29T13:35:23Z</time>
      </trkpt>
      <trkpt lat="43.4783" lon="6.33465">
        <ele>116.94</ele>
        <time>2015-09-29T13:35:35Z</time>
      </trkpt>
      <trkpt lat="43.47835" lon="6.33476">
        <ele>117.42</ele>
        <time>2015-09-29T13:35:42Z</time>
      </trkpt>
      <trkpt lat="43.47836" lon="6.3348">
        <ele>117.42</ele>
        <time>2015-09-29T13:35:44Z</time>
      </trkpt>
      <trkpt lat="43.47839" lon="6.33486">
        <ele>117.42</ele>
        <time>2015-09-29T13:35:48Z</time>
      </trkpt>
      <trkpt lat="43.47841" lon="6.33489">
        <ele>117.42</ele>
        <time>2015-09-29T13:35:50Z</time>
      </trkpt>
      <trkpt lat="43.47851" lon="6.33506">
        <ele>117.42</ele>
        <time>2015-09-29T13:36:04Z</time>
      </trkpt>
      <trkpt lat="43.47862" lon="6.33523">
        <ele>117.9</ele>
        <time>2015-09-29T13:36:17Z</time>
      </trkpt>
      <trkpt lat="43.47875" lon="6.33537">
        <ele>118.38</ele>
        <time>2015-09-29T13:36:33Z</time>
      </trkpt>
      <trkpt lat="43.47886" lon="6.33546">
        <ele>118.86</ele>
        <time>2015-09-29T13:36:47Z</time>
      </trkpt>
      <trkpt lat="43.479" lon="6.33556">
        <ele>118.86</ele>
        <time>2015-09-29T13:37:01Z</time>
      </trkpt>
      <trkpt lat="43.47903" lon="6.33558">
        <ele>118.86</ele>
        <time>2015-09-29T13:37:03Z</time>
      </trkpt>
      <trkpt lat="43.47909" lon="6.3356">
        <ele>118.86</ele>
        <time>2015-09-29T13:37:07Z</time>
      </trkpt>
      <trkpt lat="43.47916" lon="6.33562">
        <ele>119.34</ele>
        <time>2015-09-29T13:37:13Z</time>
      </trkpt>
      <trkpt lat="43.47928" lon="6.3357">
        <ele>119.34</ele>
        <time>2015-09-29T13:37:25Z</time>
      </trkpt>
      <trkpt lat="43.47936" lon="6.33575">
        <ele>119.34</ele>
        <time>2015-09-29T13:37:33Z</time>
      </trkpt>
      <trkpt lat="43.47947" lon="6.33585">
        <ele>119.34</ele>
        <time>2015-09-29T13:37:45Z</time>
      </trkpt>
      <trkpt lat="43.47962" lon="6.33595">
        <ele>119.82</ele>
        <time>2015-09-29T13:38:00Z</time>
      </trkpt>
      <trkpt lat="43.47972" lon="6.33604">
        <ele>119.82</ele>
        <time>2015-09-29T13:38:13Z</time>
      </trkpt>
      <trkpt lat="43.47986" lon="6.33616">
        <ele>120.3</ele>
        <time>2015-09-29T13:38:28Z</time>
      </trkpt>
      <trkpt lat="43.47995" lon="6.33628">
        <ele>120.78</ele>
        <time>2015-09-29T13:38:39Z</time>
      </trkpt>
      <trkpt lat="43.48008" lon="6.33645">
        <ele>120.78</ele>
        <time>2015-09-29T13:38:55Z</time>
      </trkpt>
      <trkpt lat="43.4802" lon="6.33661">
        <ele>121.26</ele>
        <time>2015-09-29T13:39:09Z</time>
      </trkpt>
      <trkpt lat="43.4803" lon="6.33674">
        <ele>121.74</ele>
        <time>2015-09-29T13:39:23Z</time>
      </trkpt>
      <trkpt lat="43.48043" lon="6.33685">
        <ele>122.22</ele>
        <time>2015-09-29T13:39:36Z</time>
      </trkpt>
      <trkpt lat="43.48055" lon="6.33697">
        <ele>122.22</ele>
        <time>2015-09-29T13:39:51Z</time>
      </trkpt>
      <trkpt lat="43.48068" lon="6.3371">
        <ele>122.22</ele>
        <time>2015-09-29T13:40:07Z</time>
      </trkpt>
      <trkpt lat="43.4808" lon="6.33719">
        <ele>122.22</ele>
        <time>2015-09-29T13:40:20Z</time>
      </trkpt>
      <trkpt lat="43.48095" lon="6.3373">
        <ele>122.71</ele>
        <time>2015-09-29T13:40:35Z</time>
      </trkpt>
      <trkpt lat="43.48108" lon="6.33738">
        <ele>123.19</ele>
        <time>2015-09-29T13:40:49Z</time>
      </trkpt>
      <trkpt lat="43.48126" lon="6.33743">
        <ele>123.19</ele>
        <time>2015-09-29T13:41:05Z</time>
      </trkpt>
      <trkpt lat="43.48128" lon="6.33743">
        <ele>123.19</ele>
        <time>2015-09-29T13:41:07Z</time>
      </trkpt>
      <trkpt lat="43.48138" lon="6.3374">
        <ele>123.67</ele>
        <time>2015-09-29T13:41:15Z</time>
      </trkpt>
      <trkpt lat="43.48144" lon="6.33736">
        <ele>123.67</ele>
        <time>2015-09-29T13:41:19Z</time>
      </trkpt>
      <trkpt lat="43.48159" lon="6.33727">
        <ele>124.15</ele>
        <time>2015-09-29T13:41:32Z</time>
      </trkpt>
      <trkpt lat="43.48164" lon="6.33722">
        <ele>124.15</ele>
        <time>2015-09-29T13:41:37Z</time>
      </trkpt>
      <trkpt lat="43.48175" lon="6.33702">
        <ele>124.63</ele>
        <time>2015-09-29T13:41:54Z</time>
      </trkpt>
      <trkpt lat="43.48181" lon="6.33693">
        <ele>124.63</ele>
        <time>2015-09-29T13:42:02Z</time>
      </trkpt>
      <trkpt lat="43.48184" lon="6.33689">
        <ele>124.63</ele>
        <time>2015-09-29T13:42:06Z</time>
      </trkpt>
      <trkpt lat="43.48196" lon="6.33671">
        <ele>125.11</ele>
        <time>2015-09-29T13:42:22Z</time>
      </trkpt>
      <trkpt lat="43.48204" lon="6.33652">
        <ele>125.11</ele>
        <time>2015-09-29T13:42:37Z</time>
      </trkpt>
      <trkpt lat="43.48211" lon="6.33638">
        <ele>125.59</ele>
        <time>2015-09-29T13:42:49Z</time>
      </trkpt>
      <trkpt lat="43.48214" lon="6.33632">
        <ele>125.59</ele>
        <time>2015-09-29T13:42:54Z</time>
      </trkpt>
      <trkpt lat="43.48218" lon="6.3362">
        <ele>125.59</ele>
        <time>2015-09-29T13:43:05Z</time>
      </trkpt>
      <trkpt lat="43.48221" lon="6.33617">
        <ele>125.59</ele>
        <time>2015-09-29T13:43:09Z</time>
      </trkpt>
      <trkpt lat="43.4823" lon="6.33602">
        <ele>126.07</ele>
        <time>2015-09-29T13:43:23Z</time>
      </trkpt>
      <trkpt lat="43.48238" lon="6.33593">
        <ele>126.07</ele>
        <time>2015-09-29T13:43:36Z</time>
      </trkpt>
      <trkpt lat="43.48243" lon="6.33596">
        <ele>126.55</ele>
        <time>2015-09-29T13:43:52Z</time>
      </trkpt>
      <trkpt lat="43.48246" lon="6.33602">
        <ele>126.55</ele>
        <time>2015-09-29T13:44:04Z</time>
      </trkpt>
      <trkpt lat="43.48248" lon="6.33597">
        <ele>126.07</ele>
        <time>2015-09-29T13:44:26Z</time>
      </trkpt>
      <trkpt lat="43.48251" lon="6.33587">
        <ele>126.07</ele>
        <time>2015-09-29T13:44:38Z</time>
      </trkpt>
      <trkpt lat="43.4825" lon="6.33587">
        <ele>126.07</ele>
        <time>2015-09-29T13:44:50Z</time>
      </trkpt>
      <trkpt lat="43.48247" lon="6.33585">
        <ele>126.07</ele>
        <time>2015-09-29T13:45:10Z</time>
      </trkpt>
      <trkpt lat="43.48248" lon="6.33585">
        <ele>125.59</ele>
        <time>2015-09-29T13:45:40Z</time>
      </trkpt>
      <trkpt lat="43.48248" lon="6.33585">
        <ele>125.59</ele>
        <time>2015-09-29T13:46:09Z</time>
      </trkpt>
      <trkpt lat="43.48249" lon="6.33586">
        <ele>125.59</ele>
        <time>2015-09-29T13:46:22Z</time>
      </trkpt>
      <trkpt lat="43.48249" lon="6.33586">
        <ele>125.59</ele>
        <time>2015-09-29T13:46:51Z</time>
      </trkpt>
      <trkpt lat="43.48249" lon="6.33585">
        <ele>125.59</ele>
        <time>2015-09-29T13:47:24Z</time>
      </trkpt>
      <trkpt lat="43.4825" lon="6.33585">
        <ele>125.11</ele>
        <time>2015-09-29T13:47:55Z</time>
      </trkpt>
      <trkpt lat="43.4825" lon="6.33585">
        <ele>125.11</ele>
        <time>2015-09-29T13:48:28Z</time>
      </trkpt>
      <trkpt lat="43.4825" lon="6.33585">
        <ele>125.11</ele>
        <time>2015-09-29T13:48:58Z</time>
      </trkpt>
      <trkpt lat="43.48249" lon="6.33585">
        <ele>125.11</ele>
        <time>2015-09-29T13:49:32Z</time>
      </trkpt>
      <trkpt lat="43.48249" lon="6.33585">
        <ele>125.11</ele>
        <time>2015-09-29T13:50:00Z</time>
      </trkpt>
      <trkpt lat="43.48249" lon="6.33585">
        <ele>125.11</ele>
        <time>2015-09-29T13:50:30Z</time>
      </trkpt>
      <trkpt lat="43.48249" lon="6.33585">
        <ele>125.11</ele>
        <time>2015-09-29T13:51:01Z</time>
      </trkpt>
      <trkpt lat="43.48249" lon="6.33584">
        <ele>125.11</ele>
        <time>2015-09-29T13:51:30Z</time>
      </trkpt>
      <trkpt lat="43.4825" lon="6.33584">
        <ele>125.11</ele>
        <time>2015-09-29T13:51:54Z</time>
      </trkpt>
      <trkpt lat="43.48251" lon="6.33584">
        <ele>125.11</ele>
        <time>2015-09-29T13:52:22Z</time>
      </trkpt>
      <trkpt lat="43.48251" lon="6.33584">
        <ele>125.11</ele>
        <time>2015-09-29T13:52:51Z</time>
      </trkpt>
      <trkpt lat="43.48251" lon="6.33583">
        <ele>125.11</ele>
        <time>2015-09-29T13:53:21Z</time>
      </trkpt>
      <trkpt lat="43.4825" lon="6.33583">
        <ele>125.11</ele>
        <time>2015-09-29T13:53:48Z</time>
      </trkpt>
      <trkpt lat="43.4825" lon="6.33583">
        <ele>125.11</ele>
        <time>2015-09-29T13:54:19Z</time>
      </trkpt>
      <trkpt lat="43.48249" lon="6.33583">
        <ele>125.11</ele>
        <time>2015-09-29T13:54:46Z</time>
      </trkpt>
      <trkpt lat="43.48246" lon="6.33588">
        <ele>125.11</ele>
        <time>2015-09-29T13:54:58Z</time>
      </trkpt>
      <trkpt lat="43.48243" lon="6.33601">
        <ele>125.11</ele>
        <time>2015-09-29T13:55:12Z</time>
      </trkpt>
      <trkpt lat="43.48239" lon="6.33607">
        <ele>124.63</ele>
        <time>2015-09-29T13:55:28Z</time>
      </trkpt>
      <trkpt lat="43.48237" lon="6.33615">
        <ele>124.63</ele>
        <time>2015-09-29T13:55:34Z</time>
      </trkpt>
      <trkpt lat="43.4823" lon="6.33633">
        <ele>124.63</ele>
        <time>2015-09-29T13:55:49Z</time>
      </trkpt>
      <trkpt lat="43.48227" lon="6.33647">
        <ele>125.11</ele>
        <time>2015-09-29T13:56:02Z</time>
      </trkpt>
      <trkpt lat="43.48226" lon="6.33659">
        <ele>126.55</ele>
        <time>2015-09-29T13:56:10Z</time>
      </trkpt>
      <trkpt lat="43.4822" lon="6.33676">
        <ele>125.59</ele>
        <time>2015-09-29T13:56:25Z</time>
      </trkpt>
      <trkpt lat="43.48218" lon="6.33689">
        <ele>125.59</ele>
        <time>2015-09-29T13:56:36Z</time>
      </trkpt>
      <trkpt lat="43.48215" lon="6.33705">
        <ele>125.59</ele>
        <time>2015-09-29T13:56:49Z</time>
      </trkpt>
      <trkpt lat="43.48212" lon="6.33722">
        <ele>125.59</ele>
        <time>2015-09-29T13:57:04Z</time>
      </trkpt>
      <trkpt lat="43.48209" lon="6.33728">
        <ele>126.07</ele>
        <time>2015-09-29T13:57:10Z</time>
      </trkpt>
      <trkpt lat="43.48206" lon="6.33744">
        <ele>127.03</ele>
        <time>2015-09-29T13:57:24Z</time>
      </trkpt>
      <trkpt lat="43.48206" lon="6.33758">
        <ele>128.47</ele>
        <time>2015-09-29T13:57:37Z</time>
      </trkpt>
      <trkpt lat="43.48208" lon="6.33767">
        <ele>129.43</ele>
        <time>2015-09-29T13:57:51Z</time>
      </trkpt>
      <trkpt lat="43.48212" lon="6.3377">
        <ele>130.88</ele>
        <time>2015-09-29T13:58:07Z</time>
      </trkpt>
      <trkpt lat="43.4822" lon="6.33775">
        <ele>132.8</ele>
        <time>2015-09-29T13:58:26Z</time>
      </trkpt>
      <trkpt lat="43.48224" lon="6.33776">
        <ele>133.76</ele>
        <time>2015-09-29T13:58:46Z</time>
      </trkpt>
      <trkpt lat="43.48225" lon="6.33781">
        <ele>134.24</ele>
        <time>2015-09-29T13:58:56Z</time>
      </trkpt>
      <trkpt lat="43.4822" lon="6.33782">
        <ele>134.72</ele>
        <time>2015-09-29T13:59:09Z</time>
      </trkpt>
      <trkpt lat="43.48215" lon="6.33782">
        <ele>135.68</ele>
        <time>2015-09-29T13:59:25Z</time>
      </trkpt>
      <trkpt lat="43.48207" lon="6.33783">
        <ele>136.64</ele>
        <time>2015-09-29T13:59:38Z</time>
      </trkpt>
      <trkpt lat="43.482" lon="6.33781">
        <ele>137.61</ele>
        <time>2015-09-29T13:59:51Z</time>
      </trkpt>
      <trkpt lat="43.48194" lon="6.33785">
        <ele>139.05</ele>
        <time>2015-09-29T14:00:03Z</time>
      </trkpt>
      <trkpt lat="43.48187" lon="6.33785">
        <ele>140.01</ele>
        <time>2015-09-29T14:00:15Z</time>
      </trkpt>
      <trkpt lat="43.48182" lon="6.33792">
        <ele>140.97</ele>
        <time>2015-09-29T14:00:28Z</time>
      </trkpt>
      <trkpt lat="43.48185" lon="6.33799">
        <ele>141.93</ele>
        <time>2015-09-29T14:00:41Z</time>
      </trkpt>
      <trkpt lat="43.48196" lon="6.33808">
        <ele>143.37</ele>
        <time>2015-09-29T14:00:59Z</time>
      </trkpt>
      <trkpt lat="43.48203" lon="6.33813">
        <ele>144.34</ele>
        <time>2015-09-29T14:01:12Z</time>
      </trkpt>
      <trkpt lat="43.48214" lon="6.33823">
        <ele>145.78</ele>
        <time>2015-09-29T14:01:29Z</time>
      </trkpt>
      <trkpt lat="43.48222" lon="6.33836">
        <ele>147.22</ele>
        <time>2015-09-29T14:01:41Z</time>
      </trkpt>
      <trkpt lat="43.48229" lon="6.33848">
        <ele>149.14</ele>
        <time>2015-09-29T14:01:54Z</time>
      </trkpt>
      <trkpt lat="43.48232" lon="6.33857">
        <ele>151.54</ele>
        <time>2015-09-29T14:02:11Z</time>
      </trkpt>
      <trkpt lat="43.48231" lon="6.33869">
        <ele>152.51</ele>
        <time>2015-09-29T14:02:27Z</time>
      </trkpt>
      <trkpt lat="43.4823" lon="6.33871">
        <ele>152.99</ele>
        <time>2015-09-29T14:02:46Z</time>
      </trkpt>
      <trkpt lat="43.48229" lon="6.33877">
        <ele>153.95</ele>
        <time>2015-09-29T14:03:03Z</time>
      </trkpt>
      <trkpt lat="43.48225" lon="6.33888">
        <ele>155.39</ele>
        <time>2015-09-29T14:03:17Z</time>
      </trkpt>
      <trkpt lat="43.48222" lon="6.33887">
        <ele>156.83</ele>
        <time>2015-09-29T14:03:29Z</time>
      </trkpt>
      <trkpt lat="43.48222" lon="6.33885">
        <ele>157.31</ele>
        <time>2015-09-29T14:03:35Z</time>
      </trkpt>
      <trkpt lat="43.48217" lon="6.33882">
        <ele>157.79</ele>
        <time>2015-09-29T14:03:47Z</time>
      </trkpt>
      <trkpt lat="43.48206" lon="6.33881">
        <ele>159.72</ele>
        <time>2015-09-29T14:04:00Z</time>
      </trkpt>
      <trkpt lat="43.48206" lon="6.33894">
        <ele>161.16</ele>
        <time>2015-09-29T14:04:11Z</time>
      </trkpt>
      <trkpt lat="43.48207" lon="6.33902">
        <ele>160.2</ele>
        <time>2015-09-29T14:04:18Z</time>
      </trkpt>
      <trkpt lat="43.48212" lon="6.33917">
        <ele>159.72</ele>
        <time>2015-09-29T14:04:31Z</time>
      </trkpt>
      <trkpt lat="43.48216" lon="6.33929">
        <ele>160.2</ele>
        <time>2015-09-29T14:04:46Z</time>
      </trkpt>
      <trkpt lat="43.48218" lon="6.33932">
        <ele>160.2</ele>
        <time>2015-09-29T14:04:49Z</time>
      </trkpt>
      <trkpt lat="43.48236" lon="6.33929">
        <ele>159.24</ele>
        <time>2015-09-29T14:05:05Z</time>
      </trkpt>
      <trkpt lat="43.48245" lon="6.33926">
        <ele>159.72</ele>
        <time>2015-09-29T14:05:19Z</time>
      </trkpt>
      <trkpt lat="43.48247" lon="6.33925">
        <ele>160.2</ele>
        <time>2015-09-29T14:05:37Z</time>
      </trkpt>
      <trkpt lat="43.48248" lon="6.33924">
        <ele>160.2</ele>
        <time>2015-09-29T14:05:56Z</time>
      </trkpt>
      <trkpt lat="43.4825" lon="6.33923">
        <ele>160.2</ele>
        <time>2015-09-29T14:06:13Z</time>
      </trkpt>
      <trkpt lat="43.4826" lon="6.33916">
        <ele>160.68</ele>
        <time>2015-09-29T14:06:26Z</time>
      </trkpt>
      <trkpt lat="43.48269" lon="6.33911">
        <ele>161.16</ele>
        <time>2015-09-29T14:06:37Z</time>
      </trkpt>
      <trkpt lat="43.48281" lon="6.33903">
        <ele>161.64</ele>
        <time>2015-09-29T14:06:52Z</time>
      </trkpt>
      <trkpt lat="43.48288" lon="6.33897">
        <ele>162.6</ele>
        <time>2015-09-29T14:07:05Z</time>
      </trkpt>
      <trkpt lat="43.48294" lon="6.33892">
        <ele>163.56</ele>
        <time>2015-09-29T14:07:20Z</time>
      </trkpt>
      <trkpt lat="43.48301" lon="6.33885">
        <ele>165</ele>
        <time>2015-09-29T14:07:32Z</time>
      </trkpt>
      <trkpt lat="43.48308" lon="6.33881">
        <ele>166.93</ele>
        <time>2015-09-29T14:07:47Z</time>
      </trkpt>
      <trkpt lat="43.48318" lon="6.33872">
        <ele>168.85</ele>
        <time>2015-09-29T14:08:01Z</time>
      </trkpt>
      <trkpt lat="43.48321" lon="6.33868">
        <ele>169.81</ele>
        <time>2015-09-29T14:08:07Z</time>
      </trkpt>
      <trkpt lat="43.48328" lon="6.33863">
        <ele>170.77</ele>
        <time>2015-09-29T14:08:21Z</time>
      </trkpt>
      <trkpt lat="43.48337" lon="6.33853">
        <ele>172.21</ele>
        <time>2015-09-29T14:08:36Z</time>
      </trkpt>
      <trkpt lat="43.48348" lon="6.33845">
        <ele>173.66</ele>
        <time>2015-09-29T14:08:52Z</time>
      </trkpt>
      <trkpt lat="43.48356" lon="6.33831">
        <ele>174.14</ele>
        <time>2015-09-29T14:09:08Z</time>
      </trkpt>
      <trkpt lat="43.48358" lon="6.33814">
        <ele>172.21</ele>
        <time>2015-09-29T14:09:24Z</time>
      </trkpt>
      <trkpt lat="43.48362" lon="6.33801">
        <ele>171.73</ele>
        <time>2015-09-29T14:09:38Z</time>
      </trkpt>
      <trkpt lat="43.48365" lon="6.33782">
        <ele>170.29</ele>
        <time>2015-09-29T14:09:54Z</time>
      </trkpt>
      <trkpt lat="43.48368" lon="6.33767">
        <ele>168.37</ele>
        <time>2015-09-29T14:10:10Z</time>
      </trkpt>
      <trkpt lat="43.4837" lon="6.33755">
        <ele>167.41</ele>
        <time>2015-09-29T14:10:23Z</time>
      </trkpt>
      <trkpt lat="43.48374" lon="6.33735">
        <ele>165</ele>
        <time>2015-09-29T14:10:41Z</time>
      </trkpt>
      <trkpt lat="43.48378" lon="6.33717">
        <ele>163.56</ele>
        <time>2015-09-29T14:10:55Z</time>
      </trkpt>
      <trkpt lat="43.48376" lon="6.33708">
        <ele>162.12</ele>
        <time>2015-09-29T14:11:11Z</time>
      </trkpt>
      <trkpt lat="43.48368" lon="6.33694">
        <ele>162.6</ele>
        <time>2015-09-29T14:11:23Z</time>
      </trkpt>
      <trkpt lat="43.48365" lon="6.33679">
        <ele>163.08</ele>
        <time>2015-09-29T14:11:41Z</time>
      </trkpt>
      <trkpt lat="43.48364" lon="6.33668">
        <ele>164.04</ele>
        <time>2015-09-29T14:11:59Z</time>
      </trkpt>
      <trkpt lat="43.48357" lon="6.33656">
        <ele>165</ele>
        <time>2015-09-29T14:12:13Z</time>
      </trkpt>
      <trkpt lat="43.48349" lon="6.3365">
        <ele>164.04</ele>
        <time>2015-09-29T14:12:28Z</time>
      </trkpt>
      <trkpt lat="43.48341" lon="6.33649">
        <ele>164.04</ele>
        <time>2015-09-29T14:12:41Z</time>
      </trkpt>
      <trkpt lat="43.48336" lon="6.3365">
        <ele>163.56</ele>
        <time>2015-09-29T14:12:55Z</time>
      </trkpt>
      <trkpt lat="43.48331" lon="6.33654">
        <ele>164.04</ele>
        <time>2015-09-29T14:13:11Z</time>
      </trkpt>
      <trkpt lat="43.4833" lon="6.33652">
        <ele>162.6</ele>
        <time>2015-09-29T14:13:30Z</time>
      </trkpt>
      <trkpt lat="43.48331" lon="6.33654">
        <ele>162.6</ele>
        <time>2015-09-29T14:13:50Z</time>
      </trkpt>
      <trkpt lat="43.4833" lon="6.33661">
        <ele>163.08</ele>
        <time>2015-09-29T14:14:01Z</time>
      </trkpt>
      <trkpt lat="43.48327" lon="6.33666">
        <ele>163.08</ele>
        <time>2015-09-29T14:14:21Z</time>
      </trkpt>
      <trkpt lat="43.48325" lon="6.33663">
        <ele>163.08</ele>
        <time>2015-09-29T14:14:35Z</time>
      </trkpt>
      <trkpt lat="43.48321" lon="6.33662">
        <ele>162.6</ele>
        <time>2015-09-29T14:14:58Z</time>
      </trkpt>
      <trkpt lat="43.4832" lon="6.33673">
        <ele>162.12</ele>
        <time>2015-09-29T14:15:08Z</time>
      </trkpt>
      <trkpt lat="43.48326" lon="6.3368">
        <ele>163.08</ele>
        <time>2015-09-29T14:15:22Z</time>
      </trkpt>
      <trkpt lat="43.48329" lon="6.33679">
        <ele>165.48</ele>
        <time>2015-09-29T14:15:33Z</time>
      </trkpt>
      <trkpt lat="43.48332" lon="6.33678">
        <ele>165.96</ele>
        <time>2015-09-29T14:15:47Z</time>
      </trkpt>
      <trkpt lat="43.48332" lon="6.33678">
        <ele>165.96</ele>
        <time>2015-09-29T14:15:49Z</time>
      </trkpt>
      <trkpt lat="43.48332" lon="6.33671">
        <ele>165</ele>
        <time>2015-09-29T14:16:03Z</time>
      </trkpt>
      <trkpt lat="43.48335" lon="6.33661">
        <ele>164.04</ele>
        <time>2015-09-29T14:16:18Z</time>
      </trkpt>
      <trkpt lat="43.48332" lon="6.3366">
        <ele>164.04</ele>
        <time>2015-09-29T14:16:43Z</time>
      </trkpt>
      <trkpt lat="43.48331" lon="6.33661">
        <ele>164.04</ele>
        <time>2015-09-29T14:17:10Z</time>
      </trkpt>
      <trkpt lat="43.4833" lon="6.3366">
        <ele>164.04</ele>
        <time>2015-09-29T14:17:43Z</time>
      </trkpt>
      <trkpt lat="43.4833" lon="6.3366">
        <ele>164.04</ele>
        <time>2015-09-29T14:18:00Z</time>
      </trkpt>
      <trkpt lat="43.4833" lon="6.3366">
        <ele>164.04</ele>
        <time>2015-09-29T14:18:25Z</time>
      </trkpt>
      <trkpt lat="43.48328" lon="6.33659">
        <ele>164.04</ele>
        <time>2015-09-29T14:18:55Z</time>
      </trkpt>
      <trkpt lat="43.48327" lon="6.33658">
        <ele>164.04</ele>
        <time>2015-09-29T14:19:24Z</time>
      </trkpt>
      <trkpt lat="43.48328" lon="6.33658">
        <ele>164.04</ele>
        <time>2015-09-29T14:19:50Z</time>
      </trkpt>
      <trkpt lat="43.48329" lon="6.33658">
        <ele>163.08</ele>
        <time>2015-09-29T14:20:06Z</time>
      </trkpt>
      <trkpt lat="43.48332" lon="6.3365">
        <ele>162.12</ele>
        <time>2015-09-29T14:20:18Z</time>
      </trkpt>
      <trkpt lat="43.48325" lon="6.33647">
        <ele>161.16</ele>
        <time>2015-09-29T14:20:29Z</time>
      </trkpt>
      <trkpt lat="43.48318" lon="6.33656">
        <ele>161.16</ele>
        <time>2015-09-29T14:20:43Z</time>
      </trkpt>
      <trkpt lat="43.48315" lon="6.33669">
        <ele>159.72</ele>
        <time>2015-09-29T14:20:58Z</time>
      </trkpt>
      <trkpt lat="43.48317" lon="6.33682">
        <ele>159.72</ele>
        <time>2015-09-29T14:21:12Z</time>
      </trkpt>
      <trkpt lat="43.48327" lon="6.3369">
        <ele>160.2</ele>
        <time>2015-09-29T14:21:28Z</time>
      </trkpt>
      <trkpt lat="43.48328" lon="6.3369">
        <ele>159.72</ele>
        <time>2015-09-29T14:21:51Z</time>
      </trkpt>
      <trkpt lat="43.48335" lon="6.33698">
        <ele>159.72</ele>
        <time>2015-09-29T14:22:04Z</time>
      </trkpt>
      <trkpt lat="43.48347" lon="6.33701">
        <ele>161.16</ele>
        <time>2015-09-29T14:22:18Z</time>
      </trkpt>
      <trkpt lat="43.48359" lon="6.33699">
        <ele>162.12</ele>
        <time>2015-09-29T14:22:35Z</time>
      </trkpt>
      <trkpt lat="43.48364" lon="6.33699">
        <ele>162.12</ele>
        <time>2015-09-29T14:22:51Z</time>
      </trkpt>
      <trkpt lat="43.4837" lon="6.33707">
        <ele>161.64</ele>
        <time>2015-09-29T14:22:59Z</time>
      </trkpt>
      <trkpt lat="43.48373" lon="6.33717">
        <ele>162.6</ele>
        <time>2015-09-29T14:23:13Z</time>
      </trkpt>
      <trkpt lat="43.48372" lon="6.3373">
        <ele>165</ele>
        <time>2015-09-29T14:23:29Z</time>
      </trkpt>
      <trkpt lat="43.48367" lon="6.33741">
        <ele>165.96</ele>
        <time>2015-09-29T14:23:45Z</time>
      </trkpt>
      <trkpt lat="43.48362" lon="6.33756">
        <ele>167.41</ele>
        <time>2015-09-29T14:24:00Z</time>
      </trkpt>
      <trkpt lat="43.48356" lon="6.33772">
        <ele>169.33</ele>
        <time>2015-09-29T14:24:17Z</time>
      </trkpt>
      <trkpt lat="43.48358" lon="6.33791">
        <ele>171.25</ele>
        <time>2015-09-29T14:24:33Z</time>
      </trkpt>
      <trkpt lat="43.48355" lon="6.33809">
        <ele>171.73</ele>
        <time>2015-09-29T14:24:49Z</time>
      </trkpt>
      <trkpt lat="43.48351" lon="6.33821">
        <ele>172.69</ele>
        <time>2015-09-29T14:25:01Z</time>
      </trkpt>
      <trkpt lat="43.48352" lon="6.33836">
        <ele>174.62</ele>
        <time>2015-09-29T14:25:17Z</time>
      </trkpt>
      <trkpt lat="43.48363" lon="6.33845">
        <ele>177.02</ele>
        <time>2015-09-29T14:25:32Z</time>
      </trkpt>
      <trkpt lat="43.48375" lon="6.33852">
        <ele>178.94</ele>
        <time>2015-09-29T14:25:49Z</time>
      </trkpt>
      <trkpt lat="43.48386" lon="6.3386">
        <ele>178.94</ele>
        <time>2015-09-29T14:26:03Z</time>
      </trkpt>
      <trkpt lat="43.48392" lon="6.33865">
        <ele>178.46</ele>
        <time>2015-09-29T14:26:12Z</time>
      </trkpt>
      <trkpt lat="43.48395" lon="6.33871">
        <ele>179.42</ele>
        <time>2015-09-29T14:26:28Z</time>
      </trkpt>
      <trkpt lat="43.48394" lon="6.33877">
        <ele>179.9</ele>
        <time>2015-09-29T14:26:40Z</time>
      </trkpt>
      <trkpt lat="43.48392" lon="6.33887">
        <ele>180.87</ele>
        <time>2015-09-29T14:26:53Z</time>
      </trkpt>
      <trkpt lat="43.48396" lon="6.3391">
        <ele>180.87</ele>
        <time>2015-09-29T14:27:08Z</time>
      </trkpt>
      <trkpt lat="43.48402" lon="6.33924">
        <ele>180.38</ele>
        <time>2015-09-29T14:27:21Z</time>
      </trkpt>
      <trkpt lat="43.48404" lon="6.33939">
        <ele>180.38</ele>
        <time>2015-09-29T14:27:35Z</time>
      </trkpt>
      <trkpt lat="43.48411" lon="6.33959">
        <ele>180.38</ele>
        <time>2015-09-29T14:27:51Z</time>
      </trkpt>
      <trkpt lat="43.48411" lon="6.33962">
        <ele>180.38</ele>
        <time>2015-09-29T14:27:53Z</time>
      </trkpt>
      <trkpt lat="43.48414" lon="6.33977">
        <ele>180.38</ele>
        <time>2015-09-29T14:28:09Z</time>
      </trkpt>
      <trkpt lat="43.48414" lon="6.33993">
        <ele>180.38</ele>
        <time>2015-09-29T14:28:25Z</time>
      </trkpt>
      <trkpt lat="43.48408" lon="6.34006">
        <ele>180.38</ele>
        <time>2015-09-29T14:28:40Z</time>
      </trkpt>
      <trkpt lat="43.48406" lon="6.34024">
        <ele>179.9</ele>
        <time>2015-09-29T14:28:55Z</time>
      </trkpt>
      <trkpt lat="43.48405" lon="6.34041">
        <ele>178.46</ele>
        <time>2015-09-29T14:29:09Z</time>
      </trkpt>
      <trkpt lat="43.48401" lon="6.34054">
        <ele>177.02</ele>
        <time>2015-09-29T14:29:25Z</time>
      </trkpt>
      <trkpt lat="43.48401" lon="6.34068">
        <ele>175.1</ele>
        <time>2015-09-29T14:29:38Z</time>
      </trkpt>
      <trkpt lat="43.48401" lon="6.34069">
        <ele>173.17</ele>
        <time>2015-09-29T14:29:39Z</time>
      </trkpt>
      <trkpt lat="43.48397" lon="6.34077">
        <ele>174.62</ele>
        <time>2015-09-29T14:29:52Z</time>
      </trkpt>
      <trkpt lat="43.48385" lon="6.34086">
        <ele>173.66</ele>
        <time>2015-09-29T14:30:05Z</time>
      </trkpt>
      <trkpt lat="43.48379" lon="6.3409">
        <ele>173.17</ele>
        <time>2015-09-29T14:30:13Z</time>
      </trkpt>
      <trkpt lat="43.48377" lon="6.34092">
        <ele>173.17</ele>
        <time>2015-09-29T14:30:15Z</time>
      </trkpt>
      <trkpt lat="43.48371" lon="6.34099">
        <ele>173.17</ele>
        <time>2015-09-29T14:30:24Z</time>
      </trkpt>
      <trkpt lat="43.48361" lon="6.34108">
        <ele>172.69</ele>
        <time>2015-09-29T14:30:37Z</time>
      </trkpt>
      <trkpt lat="43.48358" lon="6.34114">
        <ele>172.69</ele>
        <time>2015-09-29T14:30:44Z</time>
      </trkpt>
      <trkpt lat="43.48356" lon="6.34117">
        <ele>172.69</ele>
        <time>2015-09-29T14:30:46Z</time>
      </trkpt>
      <trkpt lat="43.48345" lon="6.34133">
        <ele>172.69</ele>
        <time>2015-09-29T14:31:02Z</time>
      </trkpt>
      <trkpt lat="43.48338" lon="6.3414">
        <ele>172.69</ele>
        <time>2015-09-29T14:31:15Z</time>
      </trkpt>
      <trkpt lat="43.4833" lon="6.34148">
        <ele>172.69</ele>
        <time>2015-09-29T14:31:25Z</time>
      </trkpt>
      <trkpt lat="43.48324" lon="6.34154">
        <ele>172.21</ele>
        <time>2015-09-29T14:31:32Z</time>
      </trkpt>
      <trkpt lat="43.48317" lon="6.34169">
        <ele>170.29</ele>
        <time>2015-09-29T14:31:46Z</time>
      </trkpt>
      <trkpt lat="43.48312" lon="6.34177">
        <ele>168.37</ele>
        <time>2015-09-29T14:32:00Z</time>
      </trkpt>
      <trkpt lat="43.48303" lon="6.34185">
        <ele>167.41</ele>
        <time>2015-09-29T14:32:13Z</time>
      </trkpt>
      <trkpt lat="43.48303" lon="6.34185">
        <ele>167.89</ele>
        <time>2015-09-29T14:32:14Z</time>
      </trkpt>
      <trkpt lat="43.48301" lon="6.34189">
        <ele>166.93</ele>
        <time>2015-09-29T14:32:18Z</time>
      </trkpt>
      <trkpt lat="43.4829" lon="6.34203">
        <ele>167.41</ele>
        <time>2015-09-29T14:32:33Z</time>
      </trkpt>
      <trkpt lat="43.48281" lon="6.34215">
        <ele>166.45</ele>
        <time>2015-09-29T14:32:49Z</time>
      </trkpt>
      <trkpt lat="43.48277" lon="6.34227">
        <ele>165</ele>
        <time>2015-09-29T14:33:00Z</time>
      </trkpt>
      <trkpt lat="43.48275" lon="6.34232">
        <ele>164.52</ele>
        <time>2015-09-29T14:33:04Z</time>
      </trkpt>
      <trkpt lat="43.48267" lon="6.34248">
        <ele>163.08</ele>
        <time>2015-09-29T14:33:20Z</time>
      </trkpt>
      <trkpt lat="43.48255" lon="6.34258">
        <ele>163.08</ele>
        <time>2015-09-29T14:33:35Z</time>
      </trkpt>
      <trkpt lat="43.48243" lon="6.34266">
        <ele>163.08</ele>
        <time>2015-09-29T14:33:50Z</time>
      </trkpt>
      <trkpt lat="43.48239" lon="6.3427">
        <ele>163.08</ele>
        <time>2015-09-29T14:33:56Z</time>
      </trkpt>
      <trkpt lat="43.48236" lon="6.34272">
        <ele>163.08</ele>
        <time>2015-09-29T14:33:59Z</time>
      </trkpt>
      <trkpt lat="43.4823" lon="6.34282">
        <ele>162.6</ele>
        <time>2015-09-29T14:34:09Z</time>
      </trkpt>
      <trkpt lat="43.48216" lon="6.34293">
        <ele>162.12</ele>
        <time>2015-09-29T14:34:26Z</time>
      </trkpt>
      <trkpt lat="43.48205" lon="6.34303">
        <ele>161.64</ele>
        <time>2015-09-29T14:34:42Z</time>
      </trkpt>
      <trkpt lat="43.48202" lon="6.34311">
        <ele>161.16</ele>
        <time>2015-09-29T14:34:51Z</time>
      </trkpt>
      <trkpt lat="43.48206" lon="6.34325">
        <ele>160.2</ele>
        <time>2015-09-29T14:35:05Z</time>
      </trkpt>
      <trkpt lat="43.48209" lon="6.34327">
        <ele>158.75</ele>
        <time>2015-09-29T14:35:18Z</time>
      </trkpt>
      <trkpt lat="43.4821" lon="6.34326">
        <ele>157.79</ele>
        <time>2015-09-29T14:35:26Z</time>
      </trkpt>
    </trkseg>
  </trk>
</gpx>